<?xml version="1.0" encoding="UTF-8" standalone="no" ?>
<gpx xmlns="http://www.topografix.com/GPX/1/1" xmlns:xsi="http://www.w3.org/2001/XMLSchema-instance" xsi:schemaLocation="http://www.topografix.com/GPX/1/1 http://www.topografix.com/GPX/1/1/gpx.xsd" version="1.1" creator="VisuGPX - https://www.visugpx.com">
  <metadata>
    <name>83 - V - Lorgues </name>
    <desc><![CDATA[83 - V - Lorgues : St Peyre - Vigneaubière - Blacassous  
2022-09-23]]></desc>
  </metadata>
  <trk>
    <name><![CDATA[Lorgues - st Peyre - Vigneaubière - Blacassous  2022-09-23-01]]></name>
    <trkseg>
      <trkpt lat="43.48135" lon="6.32847">
        <ele>149.9</ele>
        <time>2022-09-23T11:43:01Z</time>
      </trkpt>
      <trkpt lat="43.48138" lon="6.32851">
        <ele>149</ele>
        <time>2022-09-23T11:43:04Z</time>
      </trkpt>
      <trkpt lat="43.48142" lon="6.32863">
        <ele>150.9</ele>
        <time>2022-09-23T11:45:21Z</time>
      </trkpt>
      <trkpt lat="43.48144" lon="6.32876">
        <ele>150.5</ele>
        <time>2022-09-23T11:45:50Z</time>
      </trkpt>
      <trkpt lat="43.48142" lon="6.32889">
        <ele>149.9</ele>
        <time>2022-09-23T11:46:01Z</time>
      </trkpt>
      <trkpt lat="43.48145" lon="6.32902">
        <ele>149.8</ele>
        <time>2022-09-23T11:46:11Z</time>
      </trkpt>
      <trkpt lat="43.48145" lon="6.32915">
        <ele>149.5</ele>
        <time>2022-09-23T11:46:21Z</time>
      </trkpt>
      <trkpt lat="43.48148" lon="6.32927">
        <ele>149.4</ele>
        <time>2022-09-23T11:46:31Z</time>
      </trkpt>
      <trkpt lat="43.48151" lon="6.32941">
        <ele>149</ele>
        <time>2022-09-23T11:46:40Z</time>
      </trkpt>
      <trkpt lat="43.48154" lon="6.32953">
        <ele>148.8</ele>
        <time>2022-09-23T11:46:49Z</time>
      </trkpt>
      <trkpt lat="43.48156" lon="6.32966">
        <ele>148.6</ele>
        <time>2022-09-23T11:46:59Z</time>
      </trkpt>
      <trkpt lat="43.48157" lon="6.3298">
        <ele>148.2</ele>
        <time>2022-09-23T11:47:10Z</time>
      </trkpt>
      <trkpt lat="43.48158" lon="6.32994">
        <ele>148</ele>
        <time>2022-09-23T11:47:20Z</time>
      </trkpt>
      <trkpt lat="43.4816" lon="6.33007">
        <ele>148.1</ele>
        <time>2022-09-23T11:47:29Z</time>
      </trkpt>
      <trkpt lat="43.48164" lon="6.33019">
        <ele>148.4</ele>
        <time>2022-09-23T11:47:37Z</time>
      </trkpt>
      <trkpt lat="43.48167" lon="6.3303">
        <ele>148.3</ele>
        <time>2022-09-23T11:47:45Z</time>
      </trkpt>
      <trkpt lat="43.4817" lon="6.33042">
        <ele>148.6</ele>
        <time>2022-09-23T11:47:53Z</time>
      </trkpt>
      <trkpt lat="43.48174" lon="6.33055">
        <ele>148.8</ele>
        <time>2022-09-23T11:48:02Z</time>
      </trkpt>
      <trkpt lat="43.48178" lon="6.33066">
        <ele>149</ele>
        <time>2022-09-23T11:48:10Z</time>
      </trkpt>
      <trkpt lat="43.48182" lon="6.33078">
        <ele>149.5</ele>
        <time>2022-09-23T11:48:20Z</time>
      </trkpt>
      <trkpt lat="43.48187" lon="6.33088">
        <ele>149.9</ele>
        <time>2022-09-23T11:48:29Z</time>
      </trkpt>
      <trkpt lat="43.48196" lon="6.33095">
        <ele>150.7</ele>
        <time>2022-09-23T11:48:40Z</time>
      </trkpt>
      <trkpt lat="43.48203" lon="6.33102">
        <ele>151.4</ele>
        <time>2022-09-23T11:48:50Z</time>
      </trkpt>
      <trkpt lat="43.48213" lon="6.33106">
        <ele>151.9</ele>
        <time>2022-09-23T11:49:01Z</time>
      </trkpt>
      <trkpt lat="43.48223" lon="6.33107">
        <ele>152.4</ele>
        <time>2022-09-23T11:49:09Z</time>
      </trkpt>
      <trkpt lat="43.48232" lon="6.33107">
        <ele>152.8</ele>
        <time>2022-09-23T11:49:17Z</time>
      </trkpt>
      <trkpt lat="43.48241" lon="6.33105">
        <ele>154</ele>
        <time>2022-09-23T11:49:26Z</time>
      </trkpt>
      <trkpt lat="43.48251" lon="6.33103">
        <ele>154.9</ele>
        <time>2022-09-23T11:49:35Z</time>
      </trkpt>
      <trkpt lat="43.4826" lon="6.33103">
        <ele>155.8</ele>
        <time>2022-09-23T11:49:43Z</time>
      </trkpt>
      <trkpt lat="43.4827" lon="6.33101">
        <ele>157</ele>
        <time>2022-09-23T11:49:51Z</time>
      </trkpt>
      <trkpt lat="43.48275" lon="6.33089">
        <ele>157.7</ele>
        <time>2022-09-23T11:49:59Z</time>
      </trkpt>
      <trkpt lat="43.48275" lon="6.33076">
        <ele>157.6</ele>
        <time>2022-09-23T11:50:09Z</time>
      </trkpt>
      <trkpt lat="43.48281" lon="6.33086">
        <ele>157.8</ele>
        <time>2022-09-23T11:50:28Z</time>
      </trkpt>
      <trkpt lat="43.48285" lon="6.33099">
        <ele>158.1</ele>
        <time>2022-09-23T11:50:37Z</time>
      </trkpt>
      <trkpt lat="43.48294" lon="6.331">
        <ele>158.4</ele>
        <time>2022-09-23T11:50:52Z</time>
      </trkpt>
      <trkpt lat="43.48304" lon="6.331">
        <ele>159</ele>
        <time>2022-09-23T11:51:02Z</time>
      </trkpt>
      <trkpt lat="43.48314" lon="6.33099">
        <ele>159.2</ele>
        <time>2022-09-23T11:51:11Z</time>
      </trkpt>
      <trkpt lat="43.48323" lon="6.33096">
        <ele>159.6</ele>
        <time>2022-09-23T11:51:22Z</time>
      </trkpt>
      <trkpt lat="43.48333" lon="6.33094">
        <ele>160.2</ele>
        <time>2022-09-23T11:51:32Z</time>
      </trkpt>
      <trkpt lat="43.48342" lon="6.33093">
        <ele>160.6</ele>
        <time>2022-09-23T11:51:42Z</time>
      </trkpt>
      <trkpt lat="43.48352" lon="6.33092">
        <ele>161.1</ele>
        <time>2022-09-23T11:51:51Z</time>
      </trkpt>
      <trkpt lat="43.48361" lon="6.33092">
        <ele>161.7</ele>
        <time>2022-09-23T11:52:01Z</time>
      </trkpt>
      <trkpt lat="43.48371" lon="6.33092">
        <ele>162</ele>
        <time>2022-09-23T11:52:10Z</time>
      </trkpt>
      <trkpt lat="43.4838" lon="6.33092">
        <ele>162.4</ele>
        <time>2022-09-23T11:52:20Z</time>
      </trkpt>
      <trkpt lat="43.4839" lon="6.33093">
        <ele>162.9</ele>
        <time>2022-09-23T11:52:30Z</time>
      </trkpt>
      <trkpt lat="43.48398" lon="6.33096">
        <ele>162.6</ele>
        <time>2022-09-23T11:52:47Z</time>
      </trkpt>
      <trkpt lat="43.48408" lon="6.33097">
        <ele>163.6</ele>
        <time>2022-09-23T11:53:00Z</time>
      </trkpt>
      <trkpt lat="43.48417" lon="6.33097">
        <ele>163.5</ele>
        <time>2022-09-23T11:53:20Z</time>
      </trkpt>
      <trkpt lat="43.48424" lon="6.33106">
        <ele>163.4</ele>
        <time>2022-09-23T11:54:10Z</time>
      </trkpt>
      <trkpt lat="43.48426" lon="6.33118">
        <ele>163.4</ele>
        <time>2022-09-23T11:54:16Z</time>
      </trkpt>
      <trkpt lat="43.48428" lon="6.33131">
        <ele>162.8</ele>
        <time>2022-09-23T11:54:22Z</time>
      </trkpt>
      <trkpt lat="43.4843" lon="6.33143">
        <ele>162.2</ele>
        <time>2022-09-23T11:54:29Z</time>
      </trkpt>
      <trkpt lat="43.48434" lon="6.33155">
        <ele>161.8</ele>
        <time>2022-09-23T11:54:36Z</time>
      </trkpt>
      <trkpt lat="43.48438" lon="6.33168">
        <ele>161.2</ele>
        <time>2022-09-23T11:54:43Z</time>
      </trkpt>
      <trkpt lat="43.48441" lon="6.33181">
        <ele>160.6</ele>
        <time>2022-09-23T11:54:50Z</time>
      </trkpt>
      <trkpt lat="43.48444" lon="6.33194">
        <ele>159.9</ele>
        <time>2022-09-23T11:54:57Z</time>
      </trkpt>
      <trkpt lat="43.48447" lon="6.33207">
        <ele>159.4</ele>
        <time>2022-09-23T11:55:04Z</time>
      </trkpt>
      <trkpt lat="43.48452" lon="6.33217">
        <ele>157.9</ele>
        <time>2022-09-23T11:55:11Z</time>
      </trkpt>
      <trkpt lat="43.48454" lon="6.3323">
        <ele>158</ele>
        <time>2022-09-23T11:55:19Z</time>
      </trkpt>
      <trkpt lat="43.48455" lon="6.33242">
        <ele>157.4</ele>
        <time>2022-09-23T11:55:27Z</time>
      </trkpt>
      <trkpt lat="43.48458" lon="6.33254">
        <ele>156.8</ele>
        <time>2022-09-23T11:55:35Z</time>
      </trkpt>
      <trkpt lat="43.48459" lon="6.33267">
        <ele>156</ele>
        <time>2022-09-23T11:55:43Z</time>
      </trkpt>
      <trkpt lat="43.48461" lon="6.33279">
        <ele>155.6</ele>
        <time>2022-09-23T11:55:52Z</time>
      </trkpt>
      <trkpt lat="43.48461" lon="6.33292">
        <ele>154.1</ele>
        <time>2022-09-23T11:56:03Z</time>
      </trkpt>
      <trkpt lat="43.48458" lon="6.33304">
        <ele>153</ele>
        <time>2022-09-23T11:56:13Z</time>
      </trkpt>
      <trkpt lat="43.48455" lon="6.33317">
        <ele>151.8</ele>
        <time>2022-09-23T11:56:22Z</time>
      </trkpt>
      <trkpt lat="43.48451" lon="6.33328">
        <ele>150.7</ele>
        <time>2022-09-23T11:56:30Z</time>
      </trkpt>
      <trkpt lat="43.48457" lon="6.33338">
        <ele>149.6</ele>
        <time>2022-09-23T11:56:40Z</time>
      </trkpt>
      <trkpt lat="43.48466" lon="6.33342">
        <ele>148.8</ele>
        <time>2022-09-23T11:56:50Z</time>
      </trkpt>
      <trkpt lat="43.48474" lon="6.33348">
        <ele>148.3</ele>
        <time>2022-09-23T11:57:01Z</time>
      </trkpt>
      <trkpt lat="43.4848" lon="6.33358">
        <ele>147.7</ele>
        <time>2022-09-23T11:57:12Z</time>
      </trkpt>
      <trkpt lat="43.48485" lon="6.33369">
        <ele>147.5</ele>
        <time>2022-09-23T11:57:21Z</time>
      </trkpt>
      <trkpt lat="43.48489" lon="6.33382">
        <ele>147</ele>
        <time>2022-09-23T11:57:31Z</time>
      </trkpt>
      <trkpt lat="43.48489" lon="6.33394">
        <ele>146.8</ele>
        <time>2022-09-23T11:57:41Z</time>
      </trkpt>
      <trkpt lat="43.48487" lon="6.33407">
        <ele>146.1</ele>
        <time>2022-09-23T11:57:51Z</time>
      </trkpt>
      <trkpt lat="43.48485" lon="6.33419">
        <ele>146</ele>
        <time>2022-09-23T11:58:08Z</time>
      </trkpt>
      <trkpt lat="43.48484" lon="6.33432">
        <ele>146.7</ele>
        <time>2022-09-23T11:58:23Z</time>
      </trkpt>
      <trkpt lat="43.48481" lon="6.33445">
        <ele>147.3</ele>
        <time>2022-09-23T11:58:37Z</time>
      </trkpt>
      <trkpt lat="43.48479" lon="6.33457">
        <ele>148.1</ele>
        <time>2022-09-23T11:58:50Z</time>
      </trkpt>
      <trkpt lat="43.48478" lon="6.33471">
        <ele>148.8</ele>
        <time>2022-09-23T11:59:01Z</time>
      </trkpt>
      <trkpt lat="43.48481" lon="6.33483">
        <ele>149.3</ele>
        <time>2022-09-23T11:59:11Z</time>
      </trkpt>
      <trkpt lat="43.48484" lon="6.33496">
        <ele>148.5</ele>
        <time>2022-09-23T11:59:23Z</time>
      </trkpt>
      <trkpt lat="43.48489" lon="6.33507">
        <ele>147.6</ele>
        <time>2022-09-23T11:59:32Z</time>
      </trkpt>
      <trkpt lat="43.48494" lon="6.33517">
        <ele>146.8</ele>
        <time>2022-09-23T11:59:42Z</time>
      </trkpt>
      <trkpt lat="43.48501" lon="6.33526">
        <ele>146.4</ele>
        <time>2022-09-23T11:59:52Z</time>
      </trkpt>
      <trkpt lat="43.48506" lon="6.33537">
        <ele>145.7</ele>
        <time>2022-09-23T12:00:01Z</time>
      </trkpt>
      <trkpt lat="43.4851" lon="6.33548">
        <ele>144.9</ele>
        <time>2022-09-23T12:00:14Z</time>
      </trkpt>
      <trkpt lat="43.48517" lon="6.33557">
        <ele>144.3</ele>
        <time>2022-09-23T12:00:23Z</time>
      </trkpt>
      <trkpt lat="43.48521" lon="6.33568">
        <ele>144.1</ele>
        <time>2022-09-23T12:00:34Z</time>
      </trkpt>
      <trkpt lat="43.48523" lon="6.3358">
        <ele>144</ele>
        <time>2022-09-23T12:00:43Z</time>
      </trkpt>
      <trkpt lat="43.48528" lon="6.33592">
        <ele>143.9</ele>
        <time>2022-09-23T12:00:52Z</time>
      </trkpt>
      <trkpt lat="43.48531" lon="6.33604">
        <ele>144.2</ele>
        <time>2022-09-23T12:01:02Z</time>
      </trkpt>
      <trkpt lat="43.48533" lon="6.33616">
        <ele>144.8</ele>
        <time>2022-09-23T12:01:12Z</time>
      </trkpt>
      <trkpt lat="43.48538" lon="6.33627">
        <ele>145.5</ele>
        <time>2022-09-23T12:01:21Z</time>
      </trkpt>
      <trkpt lat="43.48545" lon="6.33637">
        <ele>145</ele>
        <time>2022-09-23T12:01:31Z</time>
      </trkpt>
      <trkpt lat="43.48553" lon="6.33644">
        <ele>143.9</ele>
        <time>2022-09-23T12:01:42Z</time>
      </trkpt>
      <trkpt lat="43.48562" lon="6.33649">
        <ele>143.3</ele>
        <time>2022-09-23T12:01:53Z</time>
      </trkpt>
      <trkpt lat="43.4857" lon="6.33656">
        <ele>142.7</ele>
        <time>2022-09-23T12:02:00Z</time>
      </trkpt>
      <trkpt lat="43.48579" lon="6.33661">
        <ele>142.2</ele>
        <time>2022-09-23T12:02:07Z</time>
      </trkpt>
      <trkpt lat="43.48586" lon="6.3367">
        <ele>141.6</ele>
        <time>2022-09-23T12:02:14Z</time>
      </trkpt>
      <trkpt lat="43.48594" lon="6.33678">
        <ele>141.4</ele>
        <time>2022-09-23T12:02:22Z</time>
      </trkpt>
      <trkpt lat="43.48601" lon="6.33686">
        <ele>141.3</ele>
        <time>2022-09-23T12:02:30Z</time>
      </trkpt>
      <trkpt lat="43.48606" lon="6.33697">
        <ele>141.4</ele>
        <time>2022-09-23T12:02:37Z</time>
      </trkpt>
      <trkpt lat="43.48608" lon="6.3371">
        <ele>141.5</ele>
        <time>2022-09-23T12:02:47Z</time>
      </trkpt>
      <trkpt lat="43.48607" lon="6.33722">
        <ele>141.1</ele>
        <time>2022-09-23T12:03:21Z</time>
      </trkpt>
      <trkpt lat="43.48598" lon="6.33725">
        <ele>140.2</ele>
        <time>2022-09-23T12:03:30Z</time>
      </trkpt>
      <trkpt lat="43.48588" lon="6.33723">
        <ele>140.7</ele>
        <time>2022-09-23T12:03:44Z</time>
      </trkpt>
      <trkpt lat="43.48578" lon="6.3372">
        <ele>140.5</ele>
        <time>2022-09-23T12:03:53Z</time>
      </trkpt>
      <trkpt lat="43.4857" lon="6.33718">
        <ele>140.2</ele>
        <time>2022-09-23T12:04:00Z</time>
      </trkpt>
      <trkpt lat="43.4856" lon="6.33717">
        <ele>140.3</ele>
        <time>2022-09-23T12:04:09Z</time>
      </trkpt>
      <trkpt lat="43.48552" lon="6.33723">
        <ele>140.3</ele>
        <time>2022-09-23T12:05:05Z</time>
      </trkpt>
      <trkpt lat="43.48546" lon="6.33713">
        <ele>139.9</ele>
        <time>2022-09-23T12:05:14Z</time>
      </trkpt>
      <trkpt lat="43.4854" lon="6.33704">
        <ele>139.8</ele>
        <time>2022-09-23T12:05:22Z</time>
      </trkpt>
      <trkpt lat="43.48531" lon="6.33696">
        <ele>139.4</ele>
        <time>2022-09-23T12:05:32Z</time>
      </trkpt>
      <trkpt lat="43.48522" lon="6.33691">
        <ele>139.3</ele>
        <time>2022-09-23T12:05:41Z</time>
      </trkpt>
      <trkpt lat="43.48513" lon="6.3369">
        <ele>138.7</ele>
        <time>2022-09-23T12:05:50Z</time>
      </trkpt>
      <trkpt lat="43.48504" lon="6.3369">
        <ele>138.7</ele>
        <time>2022-09-23T12:05:58Z</time>
      </trkpt>
      <trkpt lat="43.48494" lon="6.3369">
        <ele>138.6</ele>
        <time>2022-09-23T12:06:11Z</time>
      </trkpt>
      <trkpt lat="43.48485" lon="6.3369">
        <ele>138.4</ele>
        <time>2022-09-23T12:06:21Z</time>
      </trkpt>
      <trkpt lat="43.48475" lon="6.33688">
        <ele>138.3</ele>
        <time>2022-09-23T12:06:33Z</time>
      </trkpt>
      <trkpt lat="43.48466" lon="6.33682">
        <ele>138.3</ele>
        <time>2022-09-23T12:06:43Z</time>
      </trkpt>
      <trkpt lat="43.48458" lon="6.33675">
        <ele>138</ele>
        <time>2022-09-23T12:06:53Z</time>
      </trkpt>
      <trkpt lat="43.4845" lon="6.33667">
        <ele>138.1</ele>
        <time>2022-09-23T12:07:03Z</time>
      </trkpt>
      <trkpt lat="43.48443" lon="6.33659">
        <ele>137.7</ele>
        <time>2022-09-23T12:07:13Z</time>
      </trkpt>
      <trkpt lat="43.48437" lon="6.3365">
        <ele>137.4</ele>
        <time>2022-09-23T12:07:21Z</time>
      </trkpt>
      <trkpt lat="43.4843" lon="6.33642">
        <ele>137</ele>
        <time>2022-09-23T12:07:30Z</time>
      </trkpt>
      <trkpt lat="43.48422" lon="6.33635">
        <ele>137</ele>
        <time>2022-09-23T12:07:38Z</time>
      </trkpt>
      <trkpt lat="43.48416" lon="6.33625">
        <ele>136.8</ele>
        <time>2022-09-23T12:07:46Z</time>
      </trkpt>
      <trkpt lat="43.48411" lon="6.33613">
        <ele>136.6</ele>
        <time>2022-09-23T12:07:54Z</time>
      </trkpt>
      <trkpt lat="43.48406" lon="6.33603">
        <ele>136.3</ele>
        <time>2022-09-23T12:08:03Z</time>
      </trkpt>
      <trkpt lat="43.484" lon="6.33593">
        <ele>135.6</ele>
        <time>2022-09-23T12:08:13Z</time>
      </trkpt>
      <trkpt lat="43.48394" lon="6.33582">
        <ele>135.6</ele>
        <time>2022-09-23T12:08:21Z</time>
      </trkpt>
      <trkpt lat="43.48389" lon="6.3357">
        <ele>135.3</ele>
        <time>2022-09-23T12:08:29Z</time>
      </trkpt>
      <trkpt lat="43.48382" lon="6.3356">
        <ele>135.1</ele>
        <time>2022-09-23T12:08:38Z</time>
      </trkpt>
      <trkpt lat="43.48375" lon="6.33551">
        <ele>134.9</ele>
        <time>2022-09-23T12:08:47Z</time>
      </trkpt>
      <trkpt lat="43.48367" lon="6.33544">
        <ele>134.7</ele>
        <time>2022-09-23T12:08:56Z</time>
      </trkpt>
      <trkpt lat="43.48359" lon="6.33538">
        <ele>134.2</ele>
        <time>2022-09-23T12:09:03Z</time>
      </trkpt>
      <trkpt lat="43.4835" lon="6.33534">
        <ele>133.6</ele>
        <time>2022-09-23T12:09:10Z</time>
      </trkpt>
      <trkpt lat="43.4834" lon="6.33534">
        <ele>133.2</ele>
        <time>2022-09-23T12:09:19Z</time>
      </trkpt>
      <trkpt lat="43.48331" lon="6.33534">
        <ele>133.2</ele>
        <time>2022-09-23T12:09:27Z</time>
      </trkpt>
      <trkpt lat="43.48321" lon="6.33534">
        <ele>133.1</ele>
        <time>2022-09-23T12:09:35Z</time>
      </trkpt>
      <trkpt lat="43.48311" lon="6.33532">
        <ele>133</ele>
        <time>2022-09-23T12:09:42Z</time>
      </trkpt>
      <trkpt lat="43.48302" lon="6.33531">
        <ele>132.9</ele>
        <time>2022-09-23T12:09:50Z</time>
      </trkpt>
      <trkpt lat="43.48292" lon="6.33532">
        <ele>132.5</ele>
        <time>2022-09-23T12:09:58Z</time>
      </trkpt>
      <trkpt lat="43.48283" lon="6.33536">
        <ele>132.1</ele>
        <time>2022-09-23T12:10:07Z</time>
      </trkpt>
      <trkpt lat="43.48276" lon="6.33544">
        <ele>131.8</ele>
        <time>2022-09-23T12:10:18Z</time>
      </trkpt>
      <trkpt lat="43.48269" lon="6.33554">
        <ele>131.4</ele>
        <time>2022-09-23T12:10:27Z</time>
      </trkpt>
      <trkpt lat="43.48264" lon="6.33566">
        <ele>131.2</ele>
        <time>2022-09-23T12:10:36Z</time>
      </trkpt>
      <trkpt lat="43.48255" lon="6.33571">
        <ele>131.2</ele>
        <time>2022-09-23T12:10:43Z</time>
      </trkpt>
      <trkpt lat="43.48248" lon="6.3358">
        <ele>131.1</ele>
        <time>2022-09-23T12:10:52Z</time>
      </trkpt>
      <trkpt lat="43.48248" lon="6.33593">
        <ele>131</ele>
        <time>2022-09-23T12:11:14Z</time>
      </trkpt>
      <trkpt lat="43.48254" lon="6.33602">
        <ele>130.8</ele>
        <time>2022-09-23T12:11:49Z</time>
      </trkpt>
      <trkpt lat="43.48258" lon="6.33613">
        <ele>130.8</ele>
        <time>2022-09-23T12:12:44Z</time>
      </trkpt>
      <trkpt lat="43.48252" lon="6.33603">
        <ele>133.8</ele>
        <time>2022-09-23T12:15:59Z</time>
      </trkpt>
      <trkpt lat="43.48245" lon="6.3361">
        <ele>131.3</ele>
        <time>2022-09-23T12:16:09Z</time>
      </trkpt>
      <trkpt lat="43.48242" lon="6.33623">
        <ele>131</ele>
        <time>2022-09-23T12:16:17Z</time>
      </trkpt>
      <trkpt lat="43.48236" lon="6.33635">
        <ele>130.9</ele>
        <time>2022-09-23T12:16:25Z</time>
      </trkpt>
      <trkpt lat="43.48234" lon="6.33647">
        <ele>131.1</ele>
        <time>2022-09-23T12:16:31Z</time>
      </trkpt>
      <trkpt lat="43.48234" lon="6.3366">
        <ele>132.2</ele>
        <time>2022-09-23T12:17:41Z</time>
      </trkpt>
      <trkpt lat="43.48233" lon="6.33673">
        <ele>132.2</ele>
        <time>2022-09-23T12:18:04Z</time>
      </trkpt>
      <trkpt lat="43.48229" lon="6.33684">
        <ele>131.9</ele>
        <time>2022-09-23T12:18:13Z</time>
      </trkpt>
      <trkpt lat="43.48226" lon="6.33698">
        <ele>131.5</ele>
        <time>2022-09-23T12:18:22Z</time>
      </trkpt>
      <trkpt lat="43.48224" lon="6.33711">
        <ele>131.3</ele>
        <time>2022-09-23T12:18:31Z</time>
      </trkpt>
      <trkpt lat="43.4822" lon="6.33723">
        <ele>131.4</ele>
        <time>2022-09-23T12:18:39Z</time>
      </trkpt>
      <trkpt lat="43.48216" lon="6.33735">
        <ele>131.9</ele>
        <time>2022-09-23T12:18:48Z</time>
      </trkpt>
      <trkpt lat="43.48213" lon="6.33747">
        <ele>132.5</ele>
        <time>2022-09-23T12:18:57Z</time>
      </trkpt>
      <trkpt lat="43.48213" lon="6.3376">
        <ele>134</ele>
        <time>2022-09-23T12:19:12Z</time>
      </trkpt>
      <trkpt lat="43.48218" lon="6.3377">
        <ele>136.5</ele>
        <time>2022-09-23T12:19:37Z</time>
      </trkpt>
      <trkpt lat="43.48227" lon="6.33775">
        <ele>139</ele>
        <time>2022-09-23T12:20:03Z</time>
      </trkpt>
      <trkpt lat="43.4822" lon="6.33784">
        <ele>140.5</ele>
        <time>2022-09-23T12:20:28Z</time>
      </trkpt>
      <trkpt lat="43.48211" lon="6.33783">
        <ele>141.5</ele>
        <time>2022-09-23T12:20:43Z</time>
      </trkpt>
      <trkpt lat="43.48202" lon="6.33785">
        <ele>143.1</ele>
        <time>2022-09-23T12:20:56Z</time>
      </trkpt>
      <trkpt lat="43.48194" lon="6.33789">
        <ele>144.1</ele>
        <time>2022-09-23T12:21:08Z</time>
      </trkpt>
      <trkpt lat="43.48185" lon="6.33793">
        <ele>145.2</ele>
        <time>2022-09-23T12:21:20Z</time>
      </trkpt>
      <trkpt lat="43.48192" lon="6.33802">
        <ele>147.4</ele>
        <time>2022-09-23T12:21:39Z</time>
      </trkpt>
      <trkpt lat="43.48201" lon="6.33806">
        <ele>148.3</ele>
        <time>2022-09-23T12:21:52Z</time>
      </trkpt>
      <trkpt lat="43.48209" lon="6.33813">
        <ele>149.7</ele>
        <time>2022-09-23T12:22:05Z</time>
      </trkpt>
      <trkpt lat="43.48214" lon="6.33823">
        <ele>150.7</ele>
        <time>2022-09-23T12:22:21Z</time>
      </trkpt>
      <trkpt lat="43.48222" lon="6.33831">
        <ele>152.5</ele>
        <time>2022-09-23T12:22:32Z</time>
      </trkpt>
      <trkpt lat="43.48227" lon="6.33842">
        <ele>153.6</ele>
        <time>2022-09-23T12:22:45Z</time>
      </trkpt>
      <trkpt lat="43.4823" lon="6.33854">
        <ele>155.1</ele>
        <time>2022-09-23T12:22:56Z</time>
      </trkpt>
      <trkpt lat="43.4823" lon="6.33866">
        <ele>157.3</ele>
        <time>2022-09-23T12:23:09Z</time>
      </trkpt>
      <trkpt lat="43.48229" lon="6.33879">
        <ele>158.8</ele>
        <time>2022-09-23T12:23:22Z</time>
      </trkpt>
      <trkpt lat="43.48221" lon="6.33883">
        <ele>162.2</ele>
        <time>2022-09-23T12:23:53Z</time>
      </trkpt>
      <trkpt lat="43.48212" lon="6.33877">
        <ele>163.3</ele>
        <time>2022-09-23T12:24:09Z</time>
      </trkpt>
      <trkpt lat="43.48208" lon="6.33889">
        <ele>164.7</ele>
        <time>2022-09-23T12:24:28Z</time>
      </trkpt>
      <trkpt lat="43.48213" lon="6.33901">
        <ele>164.7</ele>
        <time>2022-09-23T12:24:41Z</time>
      </trkpt>
      <trkpt lat="43.48217" lon="6.33912">
        <ele>165.1</ele>
        <time>2022-09-23T12:24:53Z</time>
      </trkpt>
      <trkpt lat="43.48221" lon="6.33923">
        <ele>165</ele>
        <time>2022-09-23T12:25:17Z</time>
      </trkpt>
      <trkpt lat="43.48229" lon="6.33931">
        <ele>164.8</ele>
        <time>2022-09-23T12:25:34Z</time>
      </trkpt>
      <trkpt lat="43.48238" lon="6.33929">
        <ele>164.5</ele>
        <time>2022-09-23T12:25:44Z</time>
      </trkpt>
      <trkpt lat="43.48247" lon="6.33926">
        <ele>164.2</ele>
        <time>2022-09-23T12:25:54Z</time>
      </trkpt>
      <trkpt lat="43.48253" lon="6.33916">
        <ele>164.9</ele>
        <time>2022-09-23T12:26:16Z</time>
      </trkpt>
      <trkpt lat="43.48262" lon="6.33911">
        <ele>165.6</ele>
        <time>2022-09-23T12:26:34Z</time>
      </trkpt>
      <trkpt lat="43.4827" lon="6.33906">
        <ele>165.8</ele>
        <time>2022-09-23T12:26:44Z</time>
      </trkpt>
      <trkpt lat="43.48279" lon="6.33901">
        <ele>166</ele>
        <time>2022-09-23T12:26:55Z</time>
      </trkpt>
      <trkpt lat="43.48287" lon="6.33895">
        <ele>167.3</ele>
        <time>2022-09-23T12:27:10Z</time>
      </trkpt>
      <trkpt lat="43.48295" lon="6.3389">
        <ele>168.4</ele>
        <time>2022-09-23T12:27:24Z</time>
      </trkpt>
      <trkpt lat="43.48303" lon="6.33883">
        <ele>170.4</ele>
        <time>2022-09-23T12:27:38Z</time>
      </trkpt>
      <trkpt lat="43.48312" lon="6.33877">
        <ele>172.4</ele>
        <time>2022-09-23T12:27:54Z</time>
      </trkpt>
      <trkpt lat="43.48319" lon="6.3387">
        <ele>174.3</ele>
        <time>2022-09-23T12:28:08Z</time>
      </trkpt>
      <trkpt lat="43.48328" lon="6.33863">
        <ele>175.1</ele>
        <time>2022-09-23T12:28:20Z</time>
      </trkpt>
      <trkpt lat="43.48336" lon="6.33856">
        <ele>175.9</ele>
        <time>2022-09-23T12:28:33Z</time>
      </trkpt>
      <trkpt lat="43.48344" lon="6.3385">
        <ele>176.7</ele>
        <time>2022-09-23T12:28:42Z</time>
      </trkpt>
      <trkpt lat="43.48353" lon="6.33845">
        <ele>177.7</ele>
        <time>2022-09-23T12:28:53Z</time>
      </trkpt>
      <trkpt lat="43.48356" lon="6.33833">
        <ele>178.4</ele>
        <time>2022-09-23T12:29:10Z</time>
      </trkpt>
      <trkpt lat="43.48359" lon="6.3382">
        <ele>177.2</ele>
        <time>2022-09-23T12:29:21Z</time>
      </trkpt>
      <trkpt lat="43.48363" lon="6.33809">
        <ele>176.5</ele>
        <time>2022-09-23T12:29:33Z</time>
      </trkpt>
      <trkpt lat="43.48367" lon="6.33797">
        <ele>175.9</ele>
        <time>2022-09-23T12:29:44Z</time>
      </trkpt>
      <trkpt lat="43.48368" lon="6.33783">
        <ele>174.8</ele>
        <time>2022-09-23T12:29:54Z</time>
      </trkpt>
      <trkpt lat="43.48368" lon="6.3377">
        <ele>173.5</ele>
        <time>2022-09-23T12:30:05Z</time>
      </trkpt>
      <trkpt lat="43.48372" lon="6.33759">
        <ele>172.6</ele>
        <time>2022-09-23T12:30:16Z</time>
      </trkpt>
      <trkpt lat="43.48376" lon="6.33746">
        <ele>171.3</ele>
        <time>2022-09-23T12:30:26Z</time>
      </trkpt>
      <trkpt lat="43.48382" lon="6.33735">
        <ele>170.7</ele>
        <time>2022-09-23T12:30:34Z</time>
      </trkpt>
      <trkpt lat="43.48386" lon="6.33721">
        <ele>168.9</ele>
        <time>2022-09-23T12:30:44Z</time>
      </trkpt>
      <trkpt lat="43.48382" lon="6.33709">
        <ele>167.7</ele>
        <time>2022-09-23T12:30:54Z</time>
      </trkpt>
      <trkpt lat="43.48375" lon="6.337">
        <ele>167.6</ele>
        <time>2022-09-23T12:31:05Z</time>
      </trkpt>
      <trkpt lat="43.48367" lon="6.33695">
        <ele>167.7</ele>
        <time>2022-09-23T12:31:21Z</time>
      </trkpt>
      <trkpt lat="43.48357" lon="6.33696">
        <ele>167.9</ele>
        <time>2022-09-23T12:31:54Z</time>
      </trkpt>
      <trkpt lat="43.48362" lon="6.33684">
        <ele>169.1</ele>
        <time>2022-09-23T12:33:25Z</time>
      </trkpt>
      <trkpt lat="43.48362" lon="6.33671">
        <ele>169.4</ele>
        <time>2022-09-23T12:33:36Z</time>
      </trkpt>
      <trkpt lat="43.48359" lon="6.33659">
        <ele>170.7</ele>
        <time>2022-09-23T12:33:57Z</time>
      </trkpt>
      <trkpt lat="43.48352" lon="6.33652">
        <ele>169.7</ele>
        <time>2022-09-23T12:34:15Z</time>
      </trkpt>
      <trkpt lat="43.48343" lon="6.33649">
        <ele>169.3</ele>
        <time>2022-09-23T12:34:32Z</time>
      </trkpt>
      <trkpt lat="43.48334" lon="6.33645">
        <ele>168.6</ele>
        <time>2022-09-23T12:34:58Z</time>
      </trkpt>
      <trkpt lat="43.48331" lon="6.33657">
        <ele>168.6</ele>
        <time>2022-09-23T12:37:21Z</time>
      </trkpt>
      <trkpt lat="43.48324" lon="6.33665">
        <ele>169.4</ele>
        <time>2022-09-23T12:39:55Z</time>
      </trkpt>
      <trkpt lat="43.48324" lon="6.33678">
        <ele>168.6</ele>
        <time>2022-09-23T12:40:22Z</time>
      </trkpt>
      <trkpt lat="43.48324" lon="6.3369">
        <ele>169.2</ele>
        <time>2022-09-23T12:41:03Z</time>
      </trkpt>
      <trkpt lat="43.48332" lon="6.33697">
        <ele>168.9</ele>
        <time>2022-09-23T12:41:45Z</time>
      </trkpt>
      <trkpt lat="43.48341" lon="6.33698">
        <ele>169.5</ele>
        <time>2022-09-23T12:42:06Z</time>
      </trkpt>
      <trkpt lat="43.4835" lon="6.33696">
        <ele>169.6</ele>
        <time>2022-09-23T12:42:39Z</time>
      </trkpt>
      <trkpt lat="43.48358" lon="6.33704">
        <ele>169.8</ele>
        <time>2022-09-23T12:43:28Z</time>
      </trkpt>
      <trkpt lat="43.48352" lon="6.33714">
        <ele>169.5</ele>
        <time>2022-09-23T12:43:44Z</time>
      </trkpt>
      <trkpt lat="43.48361" lon="6.3372">
        <ele>169.9</ele>
        <time>2022-09-23T12:44:29Z</time>
      </trkpt>
      <trkpt lat="43.48368" lon="6.33728">
        <ele>170.5</ele>
        <time>2022-09-23T12:44:40Z</time>
      </trkpt>
      <trkpt lat="43.48365" lon="6.3374">
        <ele>173.9</ele>
        <time>2022-09-23T12:44:59Z</time>
      </trkpt>
      <trkpt lat="43.4836" lon="6.33751">
        <ele>175.4</ele>
        <time>2022-09-23T12:45:12Z</time>
      </trkpt>
      <trkpt lat="43.48356" lon="6.33764">
        <ele>176.6</ele>
        <time>2022-09-23T12:45:28Z</time>
      </trkpt>
      <trkpt lat="43.48354" lon="6.33777">
        <ele>178.2</ele>
        <time>2022-09-23T12:45:43Z</time>
      </trkpt>
      <trkpt lat="43.48352" lon="6.33789">
        <ele>179.2</ele>
        <time>2022-09-23T12:45:55Z</time>
      </trkpt>
      <trkpt lat="43.4835" lon="6.33802">
        <ele>180</ele>
        <time>2022-09-23T12:46:05Z</time>
      </trkpt>
      <trkpt lat="43.4835" lon="6.33816">
        <ele>180.5</ele>
        <time>2022-09-23T12:46:16Z</time>
      </trkpt>
      <trkpt lat="43.48354" lon="6.33828">
        <ele>181.4</ele>
        <time>2022-09-23T12:46:23Z</time>
      </trkpt>
      <trkpt lat="43.48359" lon="6.33838">
        <ele>183.3</ele>
        <time>2022-09-23T12:46:34Z</time>
      </trkpt>
      <trkpt lat="43.48366" lon="6.33847">
        <ele>184.6</ele>
        <time>2022-09-23T12:46:46Z</time>
      </trkpt>
      <trkpt lat="43.48374" lon="6.33852">
        <ele>186.5</ele>
        <time>2022-09-23T12:46:59Z</time>
      </trkpt>
      <trkpt lat="43.48383" lon="6.33856">
        <ele>186.7</ele>
        <time>2022-09-23T12:47:09Z</time>
      </trkpt>
      <trkpt lat="43.48392" lon="6.33863">
        <ele>186.8</ele>
        <time>2022-09-23T12:47:20Z</time>
      </trkpt>
      <trkpt lat="43.48393" lon="6.33876">
        <ele>187.3</ele>
        <time>2022-09-23T12:47:35Z</time>
      </trkpt>
      <trkpt lat="43.48394" lon="6.3389">
        <ele>188.5</ele>
        <time>2022-09-23T12:47:47Z</time>
      </trkpt>
      <trkpt lat="43.48396" lon="6.33902">
        <ele>188.3</ele>
        <time>2022-09-23T12:47:55Z</time>
      </trkpt>
      <trkpt lat="43.48401" lon="6.33912">
        <ele>188</ele>
        <time>2022-09-23T12:48:04Z</time>
      </trkpt>
      <trkpt lat="43.48405" lon="6.33924">
        <ele>187.8</ele>
        <time>2022-09-23T12:48:13Z</time>
      </trkpt>
      <trkpt lat="43.48406" lon="6.33936">
        <ele>188</ele>
        <time>2022-09-23T12:48:23Z</time>
      </trkpt>
      <trkpt lat="43.48411" lon="6.33947">
        <ele>187.7</ele>
        <time>2022-09-23T12:48:34Z</time>
      </trkpt>
      <trkpt lat="43.48414" lon="6.33959">
        <ele>187.7</ele>
        <time>2022-09-23T12:48:45Z</time>
      </trkpt>
      <trkpt lat="43.48416" lon="6.33971">
        <ele>187.8</ele>
        <time>2022-09-23T12:48:54Z</time>
      </trkpt>
      <trkpt lat="43.48418" lon="6.33984">
        <ele>188</ele>
        <time>2022-09-23T12:49:03Z</time>
      </trkpt>
      <trkpt lat="43.48417" lon="6.33997">
        <ele>188.2</ele>
        <time>2022-09-23T12:49:14Z</time>
      </trkpt>
      <trkpt lat="43.48412" lon="6.34008">
        <ele>188.4</ele>
        <time>2022-09-23T12:49:26Z</time>
      </trkpt>
      <trkpt lat="43.48415" lon="6.3402">
        <ele>188.4</ele>
        <time>2022-09-23T12:50:00Z</time>
      </trkpt>
      <trkpt lat="43.48411" lon="6.34032">
        <ele>187.8</ele>
        <time>2022-09-23T12:50:37Z</time>
      </trkpt>
      <trkpt lat="43.48402" lon="6.34036">
        <ele>187.8</ele>
        <time>2022-09-23T12:50:47Z</time>
      </trkpt>
      <trkpt lat="43.48394" lon="6.34043">
        <ele>187.5</ele>
        <time>2022-09-23T12:50:57Z</time>
      </trkpt>
      <trkpt lat="43.48387" lon="6.34051">
        <ele>187.5</ele>
        <time>2022-09-23T12:51:07Z</time>
      </trkpt>
      <trkpt lat="43.48379" lon="6.34055">
        <ele>187.2</ele>
        <time>2022-09-23T12:51:16Z</time>
      </trkpt>
      <trkpt lat="43.48371" lon="6.34063">
        <ele>186.9</ele>
        <time>2022-09-23T12:51:26Z</time>
      </trkpt>
      <trkpt lat="43.48362" lon="6.34068">
        <ele>186.7</ele>
        <time>2022-09-23T12:51:34Z</time>
      </trkpt>
      <trkpt lat="43.48354" lon="6.34074">
        <ele>186.9</ele>
        <time>2022-09-23T12:51:44Z</time>
      </trkpt>
      <trkpt lat="43.48344" lon="6.34076">
        <ele>187.3</ele>
        <time>2022-09-23T12:51:53Z</time>
      </trkpt>
      <trkpt lat="43.48335" lon="6.34078">
        <ele>188.1</ele>
        <time>2022-09-23T12:52:02Z</time>
      </trkpt>
      <trkpt lat="43.48327" lon="6.34086">
        <ele>189</ele>
        <time>2022-09-23T12:52:12Z</time>
      </trkpt>
      <trkpt lat="43.4832" lon="6.34093">
        <ele>189.1</ele>
        <time>2022-09-23T12:52:23Z</time>
      </trkpt>
      <trkpt lat="43.48312" lon="6.34101">
        <ele>189.1</ele>
        <time>2022-09-23T12:52:33Z</time>
      </trkpt>
      <trkpt lat="43.48305" lon="6.34109">
        <ele>189.8</ele>
        <time>2022-09-23T12:52:46Z</time>
      </trkpt>
      <trkpt lat="43.483" lon="6.34119">
        <ele>190.2</ele>
        <time>2022-09-23T12:52:59Z</time>
      </trkpt>
      <trkpt lat="43.48292" lon="6.34127">
        <ele>190.6</ele>
        <time>2022-09-23T12:53:08Z</time>
      </trkpt>
      <trkpt lat="43.48284" lon="6.34135">
        <ele>191</ele>
        <time>2022-09-23T12:53:18Z</time>
      </trkpt>
      <trkpt lat="43.48275" lon="6.34139">
        <ele>192.6</ele>
        <time>2022-09-23T12:53:34Z</time>
      </trkpt>
      <trkpt lat="43.48265" lon="6.3414">
        <ele>193.9</ele>
        <time>2022-09-23T12:53:46Z</time>
      </trkpt>
      <trkpt lat="43.48257" lon="6.34144">
        <ele>194.5</ele>
        <time>2022-09-23T12:53:56Z</time>
      </trkpt>
      <trkpt lat="43.48248" lon="6.34145">
        <ele>195.4</ele>
        <time>2022-09-23T12:54:07Z</time>
      </trkpt>
      <trkpt lat="43.48238" lon="6.34149">
        <ele>196.6</ele>
        <time>2022-09-23T12:54:19Z</time>
      </trkpt>
      <trkpt lat="43.48229" lon="6.34148">
        <ele>197.3</ele>
        <time>2022-09-23T12:54:29Z</time>
      </trkpt>
      <trkpt lat="43.4822" lon="6.3415">
        <ele>197.9</ele>
        <time>2022-09-23T12:54:43Z</time>
      </trkpt>
      <trkpt lat="43.48211" lon="6.34147">
        <ele>198.9</ele>
        <time>2022-09-23T12:55:56Z</time>
      </trkpt>
      <trkpt lat="43.48203" lon="6.34153">
        <ele>198.5</ele>
        <time>2022-09-23T12:56:36Z</time>
      </trkpt>
      <trkpt lat="43.48194" lon="6.3415">
        <ele>198.4</ele>
        <time>2022-09-23T12:57:20Z</time>
      </trkpt>
      <trkpt lat="43.48185" lon="6.34146">
        <ele>199</ele>
        <time>2022-09-23T12:57:40Z</time>
      </trkpt>
      <trkpt lat="43.48176" lon="6.34144">
        <ele>198.8</ele>
        <time>2022-09-23T12:57:53Z</time>
      </trkpt>
      <trkpt lat="43.48167" lon="6.34145">
        <ele>198.9</ele>
        <time>2022-09-23T12:58:08Z</time>
      </trkpt>
      <trkpt lat="43.48157" lon="6.34143">
        <ele>198.6</ele>
        <time>2022-09-23T12:58:22Z</time>
      </trkpt>
      <trkpt lat="43.48148" lon="6.34144">
        <ele>197.9</ele>
        <time>2022-09-23T12:58:34Z</time>
      </trkpt>
      <trkpt lat="43.48138" lon="6.34143">
        <ele>197.5</ele>
        <time>2022-09-23T12:58:46Z</time>
      </trkpt>
      <trkpt lat="43.48128" lon="6.34143">
        <ele>197.3</ele>
        <time>2022-09-23T12:58:55Z</time>
      </trkpt>
      <trkpt lat="43.48118" lon="6.34142">
        <ele>197.6</ele>
        <time>2022-09-23T12:59:05Z</time>
      </trkpt>
      <trkpt lat="43.4811" lon="6.34148">
        <ele>197.9</ele>
        <time>2022-09-23T12:59:15Z</time>
      </trkpt>
      <trkpt lat="43.48101" lon="6.34151">
        <ele>198.2</ele>
        <time>2022-09-23T12:59:26Z</time>
      </trkpt>
      <trkpt lat="43.48092" lon="6.34155">
        <ele>198.8</ele>
        <time>2022-09-23T12:59:43Z</time>
      </trkpt>
      <trkpt lat="43.48083" lon="6.34156">
        <ele>199.6</ele>
        <time>2022-09-23T13:00:11Z</time>
      </trkpt>
      <trkpt lat="43.48079" lon="6.34168">
        <ele>198.5</ele>
        <time>2022-09-23T13:00:36Z</time>
      </trkpt>
      <trkpt lat="43.48072" lon="6.34176">
        <ele>198.9</ele>
        <time>2022-09-23T13:01:08Z</time>
      </trkpt>
      <trkpt lat="43.48063" lon="6.34173">
        <ele>200.9</ele>
        <time>2022-09-23T13:03:46Z</time>
      </trkpt>
      <trkpt lat="43.48061" lon="6.34161">
        <ele>201.9</ele>
        <time>2022-09-23T13:03:58Z</time>
      </trkpt>
      <trkpt lat="43.48059" lon="6.34148">
        <ele>203.7</ele>
        <time>2022-09-23T13:04:14Z</time>
      </trkpt>
      <trkpt lat="43.48051" lon="6.34142">
        <ele>205.1</ele>
        <time>2022-09-23T13:05:18Z</time>
      </trkpt>
      <trkpt lat="43.48044" lon="6.34131">
        <ele>205.5</ele>
        <time>2022-09-23T13:05:27Z</time>
      </trkpt>
      <trkpt lat="43.48037" lon="6.34122">
        <ele>206.3</ele>
        <time>2022-09-23T13:05:35Z</time>
      </trkpt>
      <trkpt lat="43.4803" lon="6.34115">
        <ele>206.4</ele>
        <time>2022-09-23T13:05:43Z</time>
      </trkpt>
      <trkpt lat="43.48022" lon="6.34105">
        <ele>206.6</ele>
        <time>2022-09-23T13:05:51Z</time>
      </trkpt>
      <trkpt lat="43.48015" lon="6.34097">
        <ele>206.4</ele>
        <time>2022-09-23T13:05:59Z</time>
      </trkpt>
      <trkpt lat="43.48007" lon="6.34089">
        <ele>206.1</ele>
        <time>2022-09-23T13:06:06Z</time>
      </trkpt>
      <trkpt lat="43.48" lon="6.34081">
        <ele>205.6</ele>
        <time>2022-09-23T13:06:13Z</time>
      </trkpt>
      <trkpt lat="43.47993" lon="6.34074">
        <ele>205.2</ele>
        <time>2022-09-23T13:06:20Z</time>
      </trkpt>
      <trkpt lat="43.47987" lon="6.34063">
        <ele>204.6</ele>
        <time>2022-09-23T13:06:28Z</time>
      </trkpt>
      <trkpt lat="43.47982" lon="6.34052">
        <ele>203.8</ele>
        <time>2022-09-23T13:06:36Z</time>
      </trkpt>
      <trkpt lat="43.47976" lon="6.34041">
        <ele>202.8</ele>
        <time>2022-09-23T13:06:43Z</time>
      </trkpt>
      <trkpt lat="43.4797" lon="6.3403">
        <ele>202.3</ele>
        <time>2022-09-23T13:06:52Z</time>
      </trkpt>
      <trkpt lat="43.47964" lon="6.34019">
        <ele>201.7</ele>
        <time>2022-09-23T13:07:00Z</time>
      </trkpt>
      <trkpt lat="43.47959" lon="6.34008">
        <ele>200.7</ele>
        <time>2022-09-23T13:07:09Z</time>
      </trkpt>
      <trkpt lat="43.47952" lon="6.33999">
        <ele>200.1</ele>
        <time>2022-09-23T13:07:16Z</time>
      </trkpt>
      <trkpt lat="43.47946" lon="6.33988">
        <ele>198.9</ele>
        <time>2022-09-23T13:07:24Z</time>
      </trkpt>
      <trkpt lat="43.47937" lon="6.3398">
        <ele>197.9</ele>
        <time>2022-09-23T13:07:32Z</time>
      </trkpt>
      <trkpt lat="43.47929" lon="6.33973">
        <ele>196.6</ele>
        <time>2022-09-23T13:07:40Z</time>
      </trkpt>
      <trkpt lat="43.4792" lon="6.3397">
        <ele>195.4</ele>
        <time>2022-09-23T13:08:10Z</time>
      </trkpt>
      <trkpt lat="43.4791" lon="6.33969">
        <ele>194.3</ele>
        <time>2022-09-23T13:08:20Z</time>
      </trkpt>
      <trkpt lat="43.47901" lon="6.33966">
        <ele>192.9</ele>
        <time>2022-09-23T13:08:28Z</time>
      </trkpt>
      <trkpt lat="43.47892" lon="6.33965">
        <ele>191.5</ele>
        <time>2022-09-23T13:08:36Z</time>
      </trkpt>
      <trkpt lat="43.47882" lon="6.33966">
        <ele>189.7</ele>
        <time>2022-09-23T13:08:45Z</time>
      </trkpt>
      <trkpt lat="43.47872" lon="6.33965">
        <ele>187.9</ele>
        <time>2022-09-23T13:08:53Z</time>
      </trkpt>
      <trkpt lat="43.47861" lon="6.33965">
        <ele>186.7</ele>
        <time>2022-09-23T13:09:01Z</time>
      </trkpt>
      <trkpt lat="43.47852" lon="6.33965">
        <ele>185.6</ele>
        <time>2022-09-23T13:09:08Z</time>
      </trkpt>
      <trkpt lat="43.47843" lon="6.33964">
        <ele>184.6</ele>
        <time>2022-09-23T13:09:15Z</time>
      </trkpt>
      <trkpt lat="43.47833" lon="6.33962">
        <ele>183.6</ele>
        <time>2022-09-23T13:09:23Z</time>
      </trkpt>
      <trkpt lat="43.47824" lon="6.33957">
        <ele>182.9</ele>
        <time>2022-09-23T13:09:34Z</time>
      </trkpt>
      <trkpt lat="43.47815" lon="6.33954">
        <ele>182.3</ele>
        <time>2022-09-23T13:09:41Z</time>
      </trkpt>
      <trkpt lat="43.47807" lon="6.33948">
        <ele>181.6</ele>
        <time>2022-09-23T13:09:51Z</time>
      </trkpt>
      <trkpt lat="43.47798" lon="6.33945">
        <ele>181.1</ele>
        <time>2022-09-23T13:09:57Z</time>
      </trkpt>
      <trkpt lat="43.47788" lon="6.33942">
        <ele>179.9</ele>
        <time>2022-09-23T13:10:07Z</time>
      </trkpt>
      <trkpt lat="43.47779" lon="6.33939">
        <ele>178.6</ele>
        <time>2022-09-23T13:10:17Z</time>
      </trkpt>
      <trkpt lat="43.47769" lon="6.33937">
        <ele>177.1</ele>
        <time>2022-09-23T13:10:26Z</time>
      </trkpt>
      <trkpt lat="43.47761" lon="6.3393">
        <ele>175.9</ele>
        <time>2022-09-23T13:10:34Z</time>
      </trkpt>
      <trkpt lat="43.47753" lon="6.33922">
        <ele>174.7</ele>
        <time>2022-09-23T13:10:42Z</time>
      </trkpt>
      <trkpt lat="43.47746" lon="6.33913">
        <ele>173</ele>
        <time>2022-09-23T13:10:51Z</time>
      </trkpt>
      <trkpt lat="43.47737" lon="6.33908">
        <ele>171.3</ele>
        <time>2022-09-23T13:11:00Z</time>
      </trkpt>
      <trkpt lat="43.4773" lon="6.33898">
        <ele>169.8</ele>
        <time>2022-09-23T13:11:09Z</time>
      </trkpt>
      <trkpt lat="43.47722" lon="6.33892">
        <ele>168.7</ele>
        <time>2022-09-23T13:11:16Z</time>
      </trkpt>
      <trkpt lat="43.47714" lon="6.33885">
        <ele>167.5</ele>
        <time>2022-09-23T13:11:24Z</time>
      </trkpt>
      <trkpt lat="43.47706" lon="6.33882">
        <ele>166.4</ele>
        <time>2022-09-23T13:11:33Z</time>
      </trkpt>
      <trkpt lat="43.47696" lon="6.33879">
        <ele>165.3</ele>
        <time>2022-09-23T13:11:41Z</time>
      </trkpt>
      <trkpt lat="43.47686" lon="6.33875">
        <ele>164.5</ele>
        <time>2022-09-23T13:11:49Z</time>
      </trkpt>
      <trkpt lat="43.47678" lon="6.33868">
        <ele>163.5</ele>
        <time>2022-09-23T13:11:58Z</time>
      </trkpt>
      <trkpt lat="43.47669" lon="6.33865">
        <ele>162.8</ele>
        <time>2022-09-23T13:12:10Z</time>
      </trkpt>
      <trkpt lat="43.47661" lon="6.3386">
        <ele>162</ele>
        <time>2022-09-23T13:12:19Z</time>
      </trkpt>
      <trkpt lat="43.47653" lon="6.33851">
        <ele>160.8</ele>
        <time>2022-09-23T13:12:28Z</time>
      </trkpt>
      <trkpt lat="43.47645" lon="6.33845">
        <ele>159.4</ele>
        <time>2022-09-23T13:12:38Z</time>
      </trkpt>
      <trkpt lat="43.47635" lon="6.33844">
        <ele>157.9</ele>
        <time>2022-09-23T13:12:47Z</time>
      </trkpt>
      <trkpt lat="43.47626" lon="6.33843">
        <ele>156.7</ele>
        <time>2022-09-23T13:12:54Z</time>
      </trkpt>
      <trkpt lat="43.47616" lon="6.33844">
        <ele>155.3</ele>
        <time>2022-09-23T13:13:03Z</time>
      </trkpt>
      <trkpt lat="43.47606" lon="6.33844">
        <ele>153.8</ele>
        <time>2022-09-23T13:13:12Z</time>
      </trkpt>
      <trkpt lat="43.47597" lon="6.33842">
        <ele>153.2</ele>
        <time>2022-09-23T13:13:21Z</time>
      </trkpt>
      <trkpt lat="43.47588" lon="6.33839">
        <ele>152.7</ele>
        <time>2022-09-23T13:13:32Z</time>
      </trkpt>
      <trkpt lat="43.4758" lon="6.33831">
        <ele>152.9</ele>
        <time>2022-09-23T13:14:05Z</time>
      </trkpt>
      <trkpt lat="43.47575" lon="6.3382">
        <ele>153.8</ele>
        <time>2022-09-23T13:14:16Z</time>
      </trkpt>
      <trkpt lat="43.47568" lon="6.33812">
        <ele>154.9</ele>
        <time>2022-09-23T13:14:34Z</time>
      </trkpt>
      <trkpt lat="43.47559" lon="6.33808">
        <ele>155.5</ele>
        <time>2022-09-23T13:14:42Z</time>
      </trkpt>
      <trkpt lat="43.47549" lon="6.33804">
        <ele>155.9</ele>
        <time>2022-09-23T13:14:51Z</time>
      </trkpt>
      <trkpt lat="43.4754" lon="6.33799">
        <ele>156.3</ele>
        <time>2022-09-23T13:15:00Z</time>
      </trkpt>
      <trkpt lat="43.47532" lon="6.33793">
        <ele>156.5</ele>
        <time>2022-09-23T13:15:10Z</time>
      </trkpt>
      <trkpt lat="43.47527" lon="6.33782">
        <ele>156.5</ele>
        <time>2022-09-23T13:15:22Z</time>
      </trkpt>
      <trkpt lat="43.47522" lon="6.3377">
        <ele>156.5</ele>
        <time>2022-09-23T13:15:32Z</time>
      </trkpt>
      <trkpt lat="43.47522" lon="6.33757">
        <ele>157.3</ele>
        <time>2022-09-23T13:15:43Z</time>
      </trkpt>
      <trkpt lat="43.47518" lon="6.33745">
        <ele>158.1</ele>
        <time>2022-09-23T13:15:52Z</time>
      </trkpt>
      <trkpt lat="43.47512" lon="6.33736">
        <ele>158.8</ele>
        <time>2022-09-23T13:16:02Z</time>
      </trkpt>
      <trkpt lat="43.47507" lon="6.33725">
        <ele>160</ele>
        <time>2022-09-23T13:16:14Z</time>
      </trkpt>
      <trkpt lat="43.47501" lon="6.33715">
        <ele>161.1</ele>
        <time>2022-09-23T13:16:26Z</time>
      </trkpt>
      <trkpt lat="43.47494" lon="6.33707">
        <ele>161.5</ele>
        <time>2022-09-23T13:16:40Z</time>
      </trkpt>
      <trkpt lat="43.4749" lon="6.33696">
        <ele>162</ele>
        <time>2022-09-23T13:16:50Z</time>
      </trkpt>
      <trkpt lat="43.47483" lon="6.33685">
        <ele>162</ele>
        <time>2022-09-23T13:16:58Z</time>
      </trkpt>
      <trkpt lat="43.47476" lon="6.33676">
        <ele>162</ele>
        <time>2022-09-23T13:17:06Z</time>
      </trkpt>
      <trkpt lat="43.4747" lon="6.33666">
        <ele>162.3</ele>
        <time>2022-09-23T13:17:15Z</time>
      </trkpt>
      <trkpt lat="43.47462" lon="6.33659">
        <ele>162.3</ele>
        <time>2022-09-23T13:17:22Z</time>
      </trkpt>
      <trkpt lat="43.47453" lon="6.33655">
        <ele>162.8</ele>
        <time>2022-09-23T13:17:29Z</time>
      </trkpt>
      <trkpt lat="43.47445" lon="6.33651">
        <ele>162.4</ele>
        <time>2022-09-23T13:17:37Z</time>
      </trkpt>
      <trkpt lat="43.47435" lon="6.33648">
        <ele>161.3</ele>
        <time>2022-09-23T13:17:46Z</time>
      </trkpt>
      <trkpt lat="43.47425" lon="6.33646">
        <ele>160.3</ele>
        <time>2022-09-23T13:17:56Z</time>
      </trkpt>
      <trkpt lat="43.47416" lon="6.33644">
        <ele>159.3</ele>
        <time>2022-09-23T13:18:06Z</time>
      </trkpt>
      <trkpt lat="43.47407" lon="6.33645">
        <ele>158.7</ele>
        <time>2022-09-23T13:18:18Z</time>
      </trkpt>
      <trkpt lat="43.47397" lon="6.33644">
        <ele>157.5</ele>
        <time>2022-09-23T13:18:30Z</time>
      </trkpt>
      <trkpt lat="43.47388" lon="6.33645">
        <ele>156.5</ele>
        <time>2022-09-23T13:18:42Z</time>
      </trkpt>
      <trkpt lat="43.47378" lon="6.33645">
        <ele>155.7</ele>
        <time>2022-09-23T13:18:52Z</time>
      </trkpt>
      <trkpt lat="43.47368" lon="6.33646">
        <ele>155.2</ele>
        <time>2022-09-23T13:19:01Z</time>
      </trkpt>
      <trkpt lat="43.47359" lon="6.33644">
        <ele>154.9</ele>
        <time>2022-09-23T13:19:10Z</time>
      </trkpt>
      <trkpt lat="43.4735" lon="6.33639">
        <ele>154.9</ele>
        <time>2022-09-23T13:19:21Z</time>
      </trkpt>
      <trkpt lat="43.47344" lon="6.3363">
        <ele>155.1</ele>
        <time>2022-09-23T13:19:32Z</time>
      </trkpt>
      <trkpt lat="43.47342" lon="6.33617">
        <ele>155.7</ele>
        <time>2022-09-23T13:19:44Z</time>
      </trkpt>
      <trkpt lat="43.47337" lon="6.33605">
        <ele>156.7</ele>
        <time>2022-09-23T13:19:56Z</time>
      </trkpt>
      <trkpt lat="43.4733" lon="6.33596">
        <ele>158</ele>
        <time>2022-09-23T13:20:07Z</time>
      </trkpt>
      <trkpt lat="43.47323" lon="6.33587">
        <ele>159.7</ele>
        <time>2022-09-23T13:20:21Z</time>
      </trkpt>
      <trkpt lat="43.47319" lon="6.33576">
        <ele>161.4</ele>
        <time>2022-09-23T13:20:34Z</time>
      </trkpt>
      <trkpt lat="43.47315" lon="6.33565">
        <ele>162.8</ele>
        <time>2022-09-23T13:20:48Z</time>
      </trkpt>
      <trkpt lat="43.47308" lon="6.33555">
        <ele>163.8</ele>
        <time>2022-09-23T13:21:01Z</time>
      </trkpt>
      <trkpt lat="43.47302" lon="6.33545">
        <ele>164.8</ele>
        <time>2022-09-23T13:21:13Z</time>
      </trkpt>
      <trkpt lat="43.47295" lon="6.33535">
        <ele>166.1</ele>
        <time>2022-09-23T13:21:25Z</time>
      </trkpt>
      <trkpt lat="43.47287" lon="6.33528">
        <ele>167.2</ele>
        <time>2022-09-23T13:21:35Z</time>
      </trkpt>
      <trkpt lat="43.4728" lon="6.3352">
        <ele>168.1</ele>
        <time>2022-09-23T13:21:45Z</time>
      </trkpt>
      <trkpt lat="43.47271" lon="6.33512">
        <ele>169.1</ele>
        <time>2022-09-23T13:21:55Z</time>
      </trkpt>
      <trkpt lat="43.47265" lon="6.33502">
        <ele>170.2</ele>
        <time>2022-09-23T13:22:05Z</time>
      </trkpt>
      <trkpt lat="43.4726" lon="6.33491">
        <ele>171</ele>
        <time>2022-09-23T13:22:17Z</time>
      </trkpt>
      <trkpt lat="43.47256" lon="6.33479">
        <ele>172.1</ele>
        <time>2022-09-23T13:22:30Z</time>
      </trkpt>
      <trkpt lat="43.47253" lon="6.33467">
        <ele>172.6</ele>
        <time>2022-09-23T13:22:41Z</time>
      </trkpt>
      <trkpt lat="43.47252" lon="6.33455">
        <ele>172.7</ele>
        <time>2022-09-23T13:22:53Z</time>
      </trkpt>
      <trkpt lat="43.47249" lon="6.33443">
        <ele>172.8</ele>
        <time>2022-09-23T13:27:13Z</time>
      </trkpt>
      <trkpt lat="43.47246" lon="6.3343">
        <ele>172.8</ele>
        <time>2022-09-23T13:27:27Z</time>
      </trkpt>
      <trkpt lat="43.47241" lon="6.33418">
        <ele>172.9</ele>
        <time>2022-09-23T13:27:38Z</time>
      </trkpt>
      <trkpt lat="43.47233" lon="6.33412">
        <ele>172.9</ele>
        <time>2022-09-23T13:27:46Z</time>
      </trkpt>
      <trkpt lat="43.47225" lon="6.33407">
        <ele>172.5</ele>
        <time>2022-09-23T13:27:56Z</time>
      </trkpt>
      <trkpt lat="43.47215" lon="6.33405">
        <ele>171.2</ele>
        <time>2022-09-23T13:28:08Z</time>
      </trkpt>
      <trkpt lat="43.47206" lon="6.33401">
        <ele>170.3</ele>
        <time>2022-09-23T13:28:18Z</time>
      </trkpt>
      <trkpt lat="43.47197" lon="6.33396">
        <ele>169.5</ele>
        <time>2022-09-23T13:28:30Z</time>
      </trkpt>
      <trkpt lat="43.47188" lon="6.33391">
        <ele>168.7</ele>
        <time>2022-09-23T13:28:41Z</time>
      </trkpt>
      <trkpt lat="43.47181" lon="6.33383">
        <ele>167.8</ele>
        <time>2022-09-23T13:28:53Z</time>
      </trkpt>
      <trkpt lat="43.47175" lon="6.33373">
        <ele>166.5</ele>
        <time>2022-09-23T13:29:05Z</time>
      </trkpt>
      <trkpt lat="43.4717" lon="6.33363">
        <ele>165.3</ele>
        <time>2022-09-23T13:29:18Z</time>
      </trkpt>
      <trkpt lat="43.47164" lon="6.33352">
        <ele>164</ele>
        <time>2022-09-23T13:29:29Z</time>
      </trkpt>
      <trkpt lat="43.47159" lon="6.33341">
        <ele>162.3</ele>
        <time>2022-09-23T13:29:41Z</time>
      </trkpt>
      <trkpt lat="43.47154" lon="6.33331">
        <ele>161</ele>
        <time>2022-09-23T13:29:54Z</time>
      </trkpt>
      <trkpt lat="43.47151" lon="6.33319">
        <ele>159.8</ele>
        <time>2022-09-23T13:30:05Z</time>
      </trkpt>
      <trkpt lat="43.4715" lon="6.33307">
        <ele>158</ele>
        <time>2022-09-23T13:30:20Z</time>
      </trkpt>
      <trkpt lat="43.47147" lon="6.33294">
        <ele>156.6</ele>
        <time>2022-09-23T13:30:34Z</time>
      </trkpt>
      <trkpt lat="43.47144" lon="6.33282">
        <ele>156</ele>
        <time>2022-09-23T13:30:45Z</time>
      </trkpt>
      <trkpt lat="43.47143" lon="6.33269">
        <ele>155</ele>
        <time>2022-09-23T13:30:57Z</time>
      </trkpt>
      <trkpt lat="43.47142" lon="6.33256">
        <ele>153.9</ele>
        <time>2022-09-23T13:31:08Z</time>
      </trkpt>
      <trkpt lat="43.47142" lon="6.33243">
        <ele>153.2</ele>
        <time>2022-09-23T13:31:19Z</time>
      </trkpt>
      <trkpt lat="43.47144" lon="6.33231">
        <ele>152.1</ele>
        <time>2022-09-23T13:31:31Z</time>
      </trkpt>
      <trkpt lat="43.47147" lon="6.33219">
        <ele>151.1</ele>
        <time>2022-09-23T13:31:42Z</time>
      </trkpt>
      <trkpt lat="43.4715" lon="6.33206">
        <ele>150.2</ele>
        <time>2022-09-23T13:31:52Z</time>
      </trkpt>
      <trkpt lat="43.47152" lon="6.33194">
        <ele>148.9</ele>
        <time>2022-09-23T13:32:03Z</time>
      </trkpt>
      <trkpt lat="43.47155" lon="6.33181">
        <ele>147.3</ele>
        <time>2022-09-23T13:32:14Z</time>
      </trkpt>
      <trkpt lat="43.47157" lon="6.33169">
        <ele>146.4</ele>
        <time>2022-09-23T13:32:25Z</time>
      </trkpt>
      <trkpt lat="43.47163" lon="6.33158">
        <ele>145.4</ele>
        <time>2022-09-23T13:32:35Z</time>
      </trkpt>
      <trkpt lat="43.47167" lon="6.33146">
        <ele>144.4</ele>
        <time>2022-09-23T13:32:46Z</time>
      </trkpt>
      <trkpt lat="43.47168" lon="6.33133">
        <ele>143</ele>
        <time>2022-09-23T13:32:57Z</time>
      </trkpt>
      <trkpt lat="43.47163" lon="6.33122">
        <ele>142.4</ele>
        <time>2022-09-23T13:33:08Z</time>
      </trkpt>
      <trkpt lat="43.47159" lon="6.33111">
        <ele>141.7</ele>
        <time>2022-09-23T13:33:18Z</time>
      </trkpt>
      <trkpt lat="43.47155" lon="6.33099">
        <ele>141.1</ele>
        <time>2022-09-23T13:33:26Z</time>
      </trkpt>
      <trkpt lat="43.4715" lon="6.33088">
        <ele>140.4</ele>
        <time>2022-09-23T13:33:36Z</time>
      </trkpt>
      <trkpt lat="43.47144" lon="6.33078">
        <ele>139.4</ele>
        <time>2022-09-23T13:33:47Z</time>
      </trkpt>
      <trkpt lat="43.47137" lon="6.33069">
        <ele>138.7</ele>
        <time>2022-09-23T13:33:59Z</time>
      </trkpt>
      <trkpt lat="43.4713" lon="6.33061">
        <ele>137.9</ele>
        <time>2022-09-23T13:34:17Z</time>
      </trkpt>
      <trkpt lat="43.47122" lon="6.33052">
        <ele>136.9</ele>
        <time>2022-09-23T13:34:27Z</time>
      </trkpt>
      <trkpt lat="43.47115" lon="6.33043">
        <ele>136</ele>
        <time>2022-09-23T13:34:37Z</time>
      </trkpt>
      <trkpt lat="43.47107" lon="6.33036">
        <ele>135.3</ele>
        <time>2022-09-23T13:34:47Z</time>
      </trkpt>
      <trkpt lat="43.47099" lon="6.33029">
        <ele>134.7</ele>
        <time>2022-09-23T13:34:56Z</time>
      </trkpt>
      <trkpt lat="43.47091" lon="6.33021">
        <ele>133.6</ele>
        <time>2022-09-23T13:35:05Z</time>
      </trkpt>
      <trkpt lat="43.47083" lon="6.33013">
        <ele>132.7</ele>
        <time>2022-09-23T13:35:15Z</time>
      </trkpt>
      <trkpt lat="43.47076" lon="6.33006">
        <ele>131.8</ele>
        <time>2022-09-23T13:35:23Z</time>
      </trkpt>
      <trkpt lat="43.47067" lon="6.33001">
        <ele>131.1</ele>
        <time>2022-09-23T13:35:31Z</time>
      </trkpt>
      <trkpt lat="43.47058" lon="6.32997">
        <ele>130.1</ele>
        <time>2022-09-23T13:35:41Z</time>
      </trkpt>
      <trkpt lat="43.47048" lon="6.32995">
        <ele>128.9</ele>
        <time>2022-09-23T13:35:52Z</time>
      </trkpt>
      <trkpt lat="43.47039" lon="6.32991">
        <ele>128.5</ele>
        <time>2022-09-23T13:36:02Z</time>
      </trkpt>
      <trkpt lat="43.4703" lon="6.32985">
        <ele>127.7</ele>
        <time>2022-09-23T13:36:14Z</time>
      </trkpt>
      <trkpt lat="43.47021" lon="6.32984">
        <ele>126.7</ele>
        <time>2022-09-23T13:36:25Z</time>
      </trkpt>
      <trkpt lat="43.47012" lon="6.32979">
        <ele>125.6</ele>
        <time>2022-09-23T13:36:36Z</time>
      </trkpt>
      <trkpt lat="43.47005" lon="6.32971">
        <ele>124</ele>
        <time>2022-09-23T13:36:49Z</time>
      </trkpt>
      <trkpt lat="43.47" lon="6.3296">
        <ele>122.6</ele>
        <time>2022-09-23T13:37:03Z</time>
      </trkpt>
      <trkpt lat="43.46996" lon="6.32949">
        <ele>121.6</ele>
        <time>2022-09-23T13:37:15Z</time>
      </trkpt>
      <trkpt lat="43.46992" lon="6.32937">
        <ele>120.4</ele>
        <time>2022-09-23T13:37:26Z</time>
      </trkpt>
      <trkpt lat="43.46988" lon="6.32926">
        <ele>119.3</ele>
        <time>2022-09-23T13:37:37Z</time>
      </trkpt>
      <trkpt lat="43.46983" lon="6.32915">
        <ele>118.2</ele>
        <time>2022-09-23T13:37:48Z</time>
      </trkpt>
      <trkpt lat="43.46978" lon="6.32904">
        <ele>116.6</ele>
        <time>2022-09-23T13:37:59Z</time>
      </trkpt>
      <trkpt lat="43.46975" lon="6.32891">
        <ele>114.9</ele>
        <time>2022-09-23T13:38:11Z</time>
      </trkpt>
      <trkpt lat="43.4697" lon="6.3288">
        <ele>113.5</ele>
        <time>2022-09-23T13:38:21Z</time>
      </trkpt>
      <trkpt lat="43.46965" lon="6.32869">
        <ele>112.3</ele>
        <time>2022-09-23T13:38:31Z</time>
      </trkpt>
      <trkpt lat="43.46958" lon="6.32858">
        <ele>110.5</ele>
        <time>2022-09-23T13:38:42Z</time>
      </trkpt>
      <trkpt lat="43.46952" lon="6.32848">
        <ele>109</ele>
        <time>2022-09-23T13:38:54Z</time>
      </trkpt>
      <trkpt lat="43.46949" lon="6.32837">
        <ele>107.5</ele>
        <time>2022-09-23T13:39:07Z</time>
      </trkpt>
      <trkpt lat="43.46944" lon="6.32826">
        <ele>105.8</ele>
        <time>2022-09-23T13:39:29Z</time>
      </trkpt>
      <trkpt lat="43.46936" lon="6.32832">
        <ele>106.5</ele>
        <time>2022-09-23T13:41:41Z</time>
      </trkpt>
      <trkpt lat="43.46945" lon="6.32826">
        <ele>106.6</ele>
        <time>2022-09-23T13:42:09Z</time>
      </trkpt>
      <trkpt lat="43.46951" lon="6.32815">
        <ele>106.7</ele>
        <time>2022-09-23T13:44:17Z</time>
      </trkpt>
      <trkpt lat="43.46959" lon="6.32808">
        <ele>107.6</ele>
        <time>2022-09-23T13:44:31Z</time>
      </trkpt>
      <trkpt lat="43.46963" lon="6.32797">
        <ele>108.5</ele>
        <time>2022-09-23T13:44:41Z</time>
      </trkpt>
      <trkpt lat="43.46964" lon="6.32784">
        <ele>109.6</ele>
        <time>2022-09-23T13:44:52Z</time>
      </trkpt>
      <trkpt lat="43.46963" lon="6.32772">
        <ele>110.2</ele>
        <time>2022-09-23T13:45:04Z</time>
      </trkpt>
      <trkpt lat="43.46959" lon="6.32759">
        <ele>110.5</ele>
        <time>2022-09-23T13:45:16Z</time>
      </trkpt>
      <trkpt lat="43.46953" lon="6.32749">
        <ele>110.6</ele>
        <time>2022-09-23T13:45:26Z</time>
      </trkpt>
      <trkpt lat="43.46947" lon="6.32739">
        <ele>110.3</ele>
        <time>2022-09-23T13:45:36Z</time>
      </trkpt>
      <trkpt lat="43.4694" lon="6.32731">
        <ele>109.9</ele>
        <time>2022-09-23T13:45:46Z</time>
      </trkpt>
      <trkpt lat="43.46934" lon="6.32721">
        <ele>109.6</ele>
        <time>2022-09-23T13:45:56Z</time>
      </trkpt>
      <trkpt lat="43.46926" lon="6.32712">
        <ele>109.5</ele>
        <time>2022-09-23T13:46:05Z</time>
      </trkpt>
      <trkpt lat="43.46919" lon="6.32703">
        <ele>109.5</ele>
        <time>2022-09-23T13:46:14Z</time>
      </trkpt>
      <trkpt lat="43.46911" lon="6.32696">
        <ele>109.4</ele>
        <time>2022-09-23T13:46:23Z</time>
      </trkpt>
      <trkpt lat="43.46903" lon="6.32689">
        <ele>109.4</ele>
        <time>2022-09-23T13:46:32Z</time>
      </trkpt>
      <trkpt lat="43.46895" lon="6.32682">
        <ele>109.5</ele>
        <time>2022-09-23T13:46:41Z</time>
      </trkpt>
      <trkpt lat="43.46886" lon="6.32675">
        <ele>109.9</ele>
        <time>2022-09-23T13:46:50Z</time>
      </trkpt>
      <trkpt lat="43.46879" lon="6.32668">
        <ele>109.8</ele>
        <time>2022-09-23T13:46:59Z</time>
      </trkpt>
      <trkpt lat="43.46873" lon="6.32659">
        <ele>110</ele>
        <time>2022-09-23T13:47:07Z</time>
      </trkpt>
      <trkpt lat="43.46865" lon="6.32649">
        <ele>110.2</ele>
        <time>2022-09-23T13:47:16Z</time>
      </trkpt>
      <trkpt lat="43.46857" lon="6.32643">
        <ele>110.5</ele>
        <time>2022-09-23T13:47:26Z</time>
      </trkpt>
      <trkpt lat="43.46847" lon="6.32644">
        <ele>110.2</ele>
        <time>2022-09-23T13:47:37Z</time>
      </trkpt>
      <trkpt lat="43.46838" lon="6.32648">
        <ele>109.8</ele>
        <time>2022-09-23T13:47:48Z</time>
      </trkpt>
      <trkpt lat="43.4683" lon="6.32653">
        <ele>109</ele>
        <time>2022-09-23T13:47:58Z</time>
      </trkpt>
      <trkpt lat="43.46825" lon="6.32664">
        <ele>107.9</ele>
        <time>2022-09-23T13:48:13Z</time>
      </trkpt>
      <trkpt lat="43.46817" lon="6.3266">
        <ele>108.8</ele>
        <time>2022-09-23T13:48:48Z</time>
      </trkpt>
      <trkpt lat="43.46808" lon="6.32663">
        <ele>108.9</ele>
        <time>2022-09-23T13:49:01Z</time>
      </trkpt>
      <trkpt lat="43.46802" lon="6.32673">
        <ele>108.8</ele>
        <time>2022-09-23T13:49:37Z</time>
      </trkpt>
      <trkpt lat="43.46794" lon="6.32679">
        <ele>108.5</ele>
        <time>2022-09-23T13:55:13Z</time>
      </trkpt>
      <trkpt lat="43.46787" lon="6.32687">
        <ele>108.5</ele>
        <time>2022-09-23T13:55:25Z</time>
      </trkpt>
      <trkpt lat="43.46782" lon="6.32698">
        <ele>107.8</ele>
        <time>2022-09-23T13:55:39Z</time>
      </trkpt>
      <trkpt lat="43.46775" lon="6.32706">
        <ele>107.1</ele>
        <time>2022-09-23T13:55:49Z</time>
      </trkpt>
      <trkpt lat="43.46768" lon="6.32716">
        <ele>107</ele>
        <time>2022-09-23T13:55:59Z</time>
      </trkpt>
      <trkpt lat="43.46761" lon="6.32723">
        <ele>107.2</ele>
        <time>2022-09-23T13:56:09Z</time>
      </trkpt>
      <trkpt lat="43.46752" lon="6.32727">
        <ele>107.4</ele>
        <time>2022-09-23T13:56:19Z</time>
      </trkpt>
      <trkpt lat="43.46743" lon="6.32725">
        <ele>107.4</ele>
        <time>2022-09-23T13:56:48Z</time>
      </trkpt>
      <trkpt lat="43.46735" lon="6.32717">
        <ele>107.6</ele>
        <time>2022-09-23T13:56:59Z</time>
      </trkpt>
      <trkpt lat="43.46731" lon="6.32705">
        <ele>107.7</ele>
        <time>2022-09-23T13:57:09Z</time>
      </trkpt>
      <trkpt lat="43.46728" lon="6.32693">
        <ele>108.4</ele>
        <time>2022-09-23T13:57:18Z</time>
      </trkpt>
      <trkpt lat="43.46726" lon="6.3268">
        <ele>109.5</ele>
        <time>2022-09-23T13:57:28Z</time>
      </trkpt>
      <trkpt lat="43.46724" lon="6.32667">
        <ele>110.3</ele>
        <time>2022-09-23T13:57:38Z</time>
      </trkpt>
      <trkpt lat="43.46724" lon="6.32654">
        <ele>111.1</ele>
        <time>2022-09-23T13:57:48Z</time>
      </trkpt>
      <trkpt lat="43.46718" lon="6.32643">
        <ele>111.7</ele>
        <time>2022-09-23T13:58:07Z</time>
      </trkpt>
      <trkpt lat="43.46712" lon="6.32633">
        <ele>112.1</ele>
        <time>2022-09-23T13:58:16Z</time>
      </trkpt>
      <trkpt lat="43.46706" lon="6.32623">
        <ele>112.9</ele>
        <time>2022-09-23T13:58:26Z</time>
      </trkpt>
      <trkpt lat="43.467" lon="6.32613">
        <ele>113.7</ele>
        <time>2022-09-23T13:58:36Z</time>
      </trkpt>
      <trkpt lat="43.46694" lon="6.32602">
        <ele>114.5</ele>
        <time>2022-09-23T13:58:45Z</time>
      </trkpt>
      <trkpt lat="43.46688" lon="6.32593">
        <ele>114.8</ele>
        <time>2022-09-23T13:58:54Z</time>
      </trkpt>
      <trkpt lat="43.46682" lon="6.32583">
        <ele>115.1</ele>
        <time>2022-09-23T13:59:04Z</time>
      </trkpt>
      <trkpt lat="43.46675" lon="6.32573">
        <ele>114.8</ele>
        <time>2022-09-23T13:59:13Z</time>
      </trkpt>
      <trkpt lat="43.46666" lon="6.32567">
        <ele>114.8</ele>
        <time>2022-09-23T13:59:21Z</time>
      </trkpt>
      <trkpt lat="43.46657" lon="6.32562">
        <ele>115.1</ele>
        <time>2022-09-23T13:59:29Z</time>
      </trkpt>
      <trkpt lat="43.46648" lon="6.32558">
        <ele>115.2</ele>
        <time>2022-09-23T13:59:38Z</time>
      </trkpt>
      <trkpt lat="43.46639" lon="6.32552">
        <ele>115.2</ele>
        <time>2022-09-23T13:59:47Z</time>
      </trkpt>
      <trkpt lat="43.46631" lon="6.32548">
        <ele>115.3</ele>
        <time>2022-09-23T13:59:55Z</time>
      </trkpt>
      <trkpt lat="43.46621" lon="6.32544">
        <ele>115.3</ele>
        <time>2022-09-23T14:00:05Z</time>
      </trkpt>
      <trkpt lat="43.46612" lon="6.32542">
        <ele>115.4</ele>
        <time>2022-09-23T14:00:14Z</time>
      </trkpt>
      <trkpt lat="43.46602" lon="6.32541">
        <ele>115.4</ele>
        <time>2022-09-23T14:00:23Z</time>
      </trkpt>
      <trkpt lat="43.46593" lon="6.32542">
        <ele>115.8</ele>
        <time>2022-09-23T14:00:33Z</time>
      </trkpt>
      <trkpt lat="43.46583" lon="6.32544">
        <ele>115.6</ele>
        <time>2022-09-23T14:00:42Z</time>
      </trkpt>
      <trkpt lat="43.46574" lon="6.32545">
        <ele>115.6</ele>
        <time>2022-09-23T14:00:50Z</time>
      </trkpt>
      <trkpt lat="43.46564" lon="6.32545">
        <ele>116.2</ele>
        <time>2022-09-23T14:00:58Z</time>
      </trkpt>
      <trkpt lat="43.46554" lon="6.32547">
        <ele>116.5</ele>
        <time>2022-09-23T14:01:07Z</time>
      </trkpt>
      <trkpt lat="43.46544" lon="6.32547">
        <ele>115.9</ele>
        <time>2022-09-23T14:01:16Z</time>
      </trkpt>
      <trkpt lat="43.46535" lon="6.32549">
        <ele>115.5</ele>
        <time>2022-09-23T14:01:26Z</time>
      </trkpt>
      <trkpt lat="43.46526" lon="6.32546">
        <ele>115.1</ele>
        <time>2022-09-23T14:01:38Z</time>
      </trkpt>
      <trkpt lat="43.46517" lon="6.32542">
        <ele>114.2</ele>
        <time>2022-09-23T14:01:47Z</time>
      </trkpt>
      <trkpt lat="43.46508" lon="6.32539">
        <ele>113.2</ele>
        <time>2022-09-23T14:01:57Z</time>
      </trkpt>
      <trkpt lat="43.46498" lon="6.32537">
        <ele>112.3</ele>
        <time>2022-09-23T14:02:37Z</time>
      </trkpt>
      <trkpt lat="43.46489" lon="6.32534">
        <ele>111.2</ele>
        <time>2022-09-23T14:02:46Z</time>
      </trkpt>
      <trkpt lat="43.4648" lon="6.32529">
        <ele>110.5</ele>
        <time>2022-09-23T14:02:55Z</time>
      </trkpt>
      <trkpt lat="43.46481" lon="6.32516">
        <ele>110.1</ele>
        <time>2022-09-23T14:03:05Z</time>
      </trkpt>
      <trkpt lat="43.46482" lon="6.32503">
        <ele>110.2</ele>
        <time>2022-09-23T14:03:44Z</time>
      </trkpt>
      <trkpt lat="43.46485" lon="6.32491">
        <ele>109.5</ele>
        <time>2022-09-23T14:04:22Z</time>
      </trkpt>
      <trkpt lat="43.46493" lon="6.32483">
        <ele>109.8</ele>
        <time>2022-09-23T14:07:07Z</time>
      </trkpt>
      <trkpt lat="43.46498" lon="6.32473">
        <ele>109.2</ele>
        <time>2022-09-23T14:07:23Z</time>
      </trkpt>
      <trkpt lat="43.46492" lon="6.32482">
        <ele>109.4</ele>
        <time>2022-09-23T14:08:20Z</time>
      </trkpt>
      <trkpt lat="43.46485" lon="6.32492">
        <ele>109.4</ele>
        <time>2022-09-23T14:08:34Z</time>
      </trkpt>
      <trkpt lat="43.46479" lon="6.32501">
        <ele>110.2</ele>
        <time>2022-09-23T14:08:46Z</time>
      </trkpt>
      <trkpt lat="43.46476" lon="6.32513">
        <ele>110.4</ele>
        <time>2022-09-23T14:08:56Z</time>
      </trkpt>
      <trkpt lat="43.4648" lon="6.32525">
        <ele>110.7</ele>
        <time>2022-09-23T14:09:03Z</time>
      </trkpt>
      <trkpt lat="43.46488" lon="6.32532">
        <ele>111.3</ele>
        <time>2022-09-23T14:09:12Z</time>
      </trkpt>
      <trkpt lat="43.46496" lon="6.32539">
        <ele>112.5</ele>
        <time>2022-09-23T14:09:23Z</time>
      </trkpt>
      <trkpt lat="43.46504" lon="6.32546">
        <ele>113.9</ele>
        <time>2022-09-23T14:09:35Z</time>
      </trkpt>
      <trkpt lat="43.46512" lon="6.3255">
        <ele>115.2</ele>
        <time>2022-09-23T14:09:45Z</time>
      </trkpt>
      <trkpt lat="43.46521" lon="6.32552">
        <ele>115.8</ele>
        <time>2022-09-23T14:09:54Z</time>
      </trkpt>
      <trkpt lat="43.4653" lon="6.32559">
        <ele>116.6</ele>
        <time>2022-09-23T14:10:06Z</time>
      </trkpt>
      <trkpt lat="43.46539" lon="6.32558">
        <ele>117</ele>
        <time>2022-09-23T14:10:17Z</time>
      </trkpt>
      <trkpt lat="43.46548" lon="6.32555">
        <ele>117.7</ele>
        <time>2022-09-23T14:10:27Z</time>
      </trkpt>
      <trkpt lat="43.46557" lon="6.32552">
        <ele>118.8</ele>
        <time>2022-09-23T14:10:41Z</time>
      </trkpt>
      <trkpt lat="43.46565" lon="6.32546">
        <ele>119</ele>
        <time>2022-09-23T14:10:47Z</time>
      </trkpt>
      <trkpt lat="43.46573" lon="6.32538">
        <ele>119.8</ele>
        <time>2022-09-23T14:10:55Z</time>
      </trkpt>
      <trkpt lat="43.4658" lon="6.3253">
        <ele>121</ele>
        <time>2022-09-23T14:11:07Z</time>
      </trkpt>
      <trkpt lat="43.46587" lon="6.3252">
        <ele>121.9</ele>
        <time>2022-09-23T14:11:18Z</time>
      </trkpt>
      <trkpt lat="43.46596" lon="6.32514">
        <ele>122.5</ele>
        <time>2022-09-23T14:11:30Z</time>
      </trkpt>
      <trkpt lat="43.46606" lon="6.32513">
        <ele>122.6</ele>
        <time>2022-09-23T14:11:40Z</time>
      </trkpt>
      <trkpt lat="43.46615" lon="6.3251">
        <ele>122.7</ele>
        <time>2022-09-23T14:11:51Z</time>
      </trkpt>
      <trkpt lat="43.46625" lon="6.32508">
        <ele>122.7</ele>
        <time>2022-09-23T14:12:03Z</time>
      </trkpt>
      <trkpt lat="43.46634" lon="6.32509">
        <ele>122.6</ele>
        <time>2022-09-23T14:12:13Z</time>
      </trkpt>
      <trkpt lat="43.46643" lon="6.32507">
        <ele>122.5</ele>
        <time>2022-09-23T14:12:21Z</time>
      </trkpt>
      <trkpt lat="43.46652" lon="6.32505">
        <ele>122.4</ele>
        <time>2022-09-23T14:12:30Z</time>
      </trkpt>
      <trkpt lat="43.46661" lon="6.32509">
        <ele>122.5</ele>
        <time>2022-09-23T14:12:46Z</time>
      </trkpt>
      <trkpt lat="43.46671" lon="6.32503">
        <ele>122.7</ele>
        <time>2022-09-23T14:12:53Z</time>
      </trkpt>
      <trkpt lat="43.4668" lon="6.32496">
        <ele>122.8</ele>
        <time>2022-09-23T14:12:58Z</time>
      </trkpt>
      <trkpt lat="43.46689" lon="6.32493">
        <ele>123.2</ele>
        <time>2022-09-23T14:13:06Z</time>
      </trkpt>
      <trkpt lat="43.46698" lon="6.3249">
        <ele>123.5</ele>
        <time>2022-09-23T14:13:14Z</time>
      </trkpt>
      <trkpt lat="43.46707" lon="6.32486">
        <ele>124.2</ele>
        <time>2022-09-23T14:13:22Z</time>
      </trkpt>
      <trkpt lat="43.46716" lon="6.32482">
        <ele>125</ele>
        <time>2022-09-23T14:13:31Z</time>
      </trkpt>
      <trkpt lat="43.46726" lon="6.32479">
        <ele>125.9</ele>
        <time>2022-09-23T14:13:41Z</time>
      </trkpt>
      <trkpt lat="43.46734" lon="6.32486">
        <ele>127.6</ele>
        <time>2022-09-23T14:13:53Z</time>
      </trkpt>
      <trkpt lat="43.46738" lon="6.32497">
        <ele>128.6</ele>
        <time>2022-09-23T14:14:04Z</time>
      </trkpt>
      <trkpt lat="43.46743" lon="6.32509">
        <ele>130.1</ele>
        <time>2022-09-23T14:14:15Z</time>
      </trkpt>
      <trkpt lat="43.46748" lon="6.32521">
        <ele>131.2</ele>
        <time>2022-09-23T14:14:25Z</time>
      </trkpt>
      <trkpt lat="43.46754" lon="6.32531">
        <ele>131.8</ele>
        <time>2022-09-23T14:14:35Z</time>
      </trkpt>
      <trkpt lat="43.4676" lon="6.32542">
        <ele>131.9</ele>
        <time>2022-09-23T14:14:44Z</time>
      </trkpt>
      <trkpt lat="43.46767" lon="6.32551">
        <ele>131.5</ele>
        <time>2022-09-23T14:14:52Z</time>
      </trkpt>
      <trkpt lat="43.46773" lon="6.32561">
        <ele>131.4</ele>
        <time>2022-09-23T14:15:01Z</time>
      </trkpt>
      <trkpt lat="43.4678" lon="6.32571">
        <ele>130.7</ele>
        <time>2022-09-23T14:15:10Z</time>
      </trkpt>
      <trkpt lat="43.46787" lon="6.32581">
        <ele>130.8</ele>
        <time>2022-09-23T14:15:19Z</time>
      </trkpt>
      <trkpt lat="43.46794" lon="6.3259">
        <ele>130.9</ele>
        <time>2022-09-23T14:15:28Z</time>
      </trkpt>
      <trkpt lat="43.46801" lon="6.32598">
        <ele>132</ele>
        <time>2022-09-23T14:15:38Z</time>
      </trkpt>
      <trkpt lat="43.46808" lon="6.32589">
        <ele>132.8</ele>
        <time>2022-09-23T14:15:48Z</time>
      </trkpt>
      <trkpt lat="43.46812" lon="6.32577">
        <ele>132.9</ele>
        <time>2022-09-23T14:15:58Z</time>
      </trkpt>
      <trkpt lat="43.46816" lon="6.32565">
        <ele>133.5</ele>
        <time>2022-09-23T14:16:07Z</time>
      </trkpt>
      <trkpt lat="43.46822" lon="6.32555">
        <ele>134.4</ele>
        <time>2022-09-23T14:16:16Z</time>
      </trkpt>
      <trkpt lat="43.46826" lon="6.32544">
        <ele>135.8</ele>
        <time>2022-09-23T14:16:26Z</time>
      </trkpt>
      <trkpt lat="43.46831" lon="6.32533">
        <ele>136.8</ele>
        <time>2022-09-23T14:16:35Z</time>
      </trkpt>
      <trkpt lat="43.46837" lon="6.32523">
        <ele>137.4</ele>
        <time>2022-09-23T14:16:45Z</time>
      </trkpt>
      <trkpt lat="43.46845" lon="6.32515">
        <ele>138.6</ele>
        <time>2022-09-23T14:16:58Z</time>
      </trkpt>
      <trkpt lat="43.46854" lon="6.32509">
        <ele>140.4</ele>
        <time>2022-09-23T14:17:13Z</time>
      </trkpt>
      <trkpt lat="43.46861" lon="6.32502">
        <ele>141.2</ele>
        <time>2022-09-23T14:17:24Z</time>
      </trkpt>
      <trkpt lat="43.46868" lon="6.32494">
        <ele>142.5</ele>
        <time>2022-09-23T14:17:35Z</time>
      </trkpt>
      <trkpt lat="43.46877" lon="6.32487">
        <ele>142.7</ele>
        <time>2022-09-23T14:17:43Z</time>
      </trkpt>
      <trkpt lat="43.46886" lon="6.32481">
        <ele>142.7</ele>
        <time>2022-09-23T14:17:55Z</time>
      </trkpt>
      <trkpt lat="43.46895" lon="6.32474">
        <ele>142.4</ele>
        <time>2022-09-23T14:18:03Z</time>
      </trkpt>
      <trkpt lat="43.46902" lon="6.32466">
        <ele>142.6</ele>
        <time>2022-09-23T14:18:11Z</time>
      </trkpt>
      <trkpt lat="43.4691" lon="6.32458">
        <ele>142.7</ele>
        <time>2022-09-23T14:18:19Z</time>
      </trkpt>
      <trkpt lat="43.46917" lon="6.3245">
        <ele>143.2</ele>
        <time>2022-09-23T14:18:29Z</time>
      </trkpt>
      <trkpt lat="43.46925" lon="6.32443">
        <ele>143.8</ele>
        <time>2022-09-23T14:18:39Z</time>
      </trkpt>
      <trkpt lat="43.46922" lon="6.32431">
        <ele>144.7</ele>
        <time>2022-09-23T14:19:09Z</time>
      </trkpt>
      <trkpt lat="43.46931" lon="6.32431">
        <ele>145.1</ele>
        <time>2022-09-23T14:19:45Z</time>
      </trkpt>
      <trkpt lat="43.46941" lon="6.32432">
        <ele>146.3</ele>
        <time>2022-09-23T14:20:19Z</time>
      </trkpt>
      <trkpt lat="43.46948" lon="6.3244">
        <ele>146.4</ele>
        <time>2022-09-23T14:20:29Z</time>
      </trkpt>
      <trkpt lat="43.46955" lon="6.32447">
        <ele>146.9</ele>
        <time>2022-09-23T14:20:41Z</time>
      </trkpt>
      <trkpt lat="43.46962" lon="6.32457">
        <ele>148.1</ele>
        <time>2022-09-23T14:20:53Z</time>
      </trkpt>
      <trkpt lat="43.4697" lon="6.32464">
        <ele>149.2</ele>
        <time>2022-09-23T14:21:03Z</time>
      </trkpt>
      <trkpt lat="43.46979" lon="6.32469">
        <ele>150.6</ele>
        <time>2022-09-23T14:21:18Z</time>
      </trkpt>
      <trkpt lat="43.46987" lon="6.32476">
        <ele>151.3</ele>
        <time>2022-09-23T14:22:23Z</time>
      </trkpt>
      <trkpt lat="43.46995" lon="6.32483">
        <ele>152.6</ele>
        <time>2022-09-23T14:22:37Z</time>
      </trkpt>
      <trkpt lat="43.47005" lon="6.32487">
        <ele>153.9</ele>
        <time>2022-09-23T14:22:53Z</time>
      </trkpt>
      <trkpt lat="43.4701" lon="6.32496">
        <ele>155.1</ele>
        <time>2022-09-23T14:23:06Z</time>
      </trkpt>
      <trkpt lat="43.4702" lon="6.32499">
        <ele>156.3</ele>
        <time>2022-09-23T14:23:17Z</time>
      </trkpt>
      <trkpt lat="43.47029" lon="6.32502">
        <ele>157.2</ele>
        <time>2022-09-23T14:23:27Z</time>
      </trkpt>
      <trkpt lat="43.47038" lon="6.32503">
        <ele>158.6</ele>
        <time>2022-09-23T14:23:37Z</time>
      </trkpt>
      <trkpt lat="43.47047" lon="6.325">
        <ele>160.1</ele>
        <time>2022-09-23T14:23:51Z</time>
      </trkpt>
      <trkpt lat="43.47059" lon="6.32497">
        <ele>161.2</ele>
        <time>2022-09-23T14:24:02Z</time>
      </trkpt>
      <trkpt lat="43.47066" lon="6.32489">
        <ele>161.9</ele>
        <time>2022-09-23T14:24:07Z</time>
      </trkpt>
      <trkpt lat="43.47075" lon="6.32485">
        <ele>163.1</ele>
        <time>2022-09-23T14:24:22Z</time>
      </trkpt>
      <trkpt lat="43.47084" lon="6.32489">
        <ele>166.2</ele>
        <time>2022-09-23T14:25:04Z</time>
      </trkpt>
      <trkpt lat="43.47093" lon="6.32485">
        <ele>166.9</ele>
        <time>2022-09-23T14:25:12Z</time>
      </trkpt>
      <trkpt lat="43.47102" lon="6.32484">
        <ele>167.7</ele>
        <time>2022-09-23T14:25:25Z</time>
      </trkpt>
      <trkpt lat="43.47112" lon="6.32482">
        <ele>169.1</ele>
        <time>2022-09-23T14:25:38Z</time>
      </trkpt>
      <trkpt lat="43.4712" lon="6.32477">
        <ele>170</ele>
        <time>2022-09-23T14:25:49Z</time>
      </trkpt>
      <trkpt lat="43.47129" lon="6.32472">
        <ele>170.4</ele>
        <time>2022-09-23T14:25:57Z</time>
      </trkpt>
      <trkpt lat="43.47138" lon="6.32468">
        <ele>170.9</ele>
        <time>2022-09-23T14:26:06Z</time>
      </trkpt>
      <trkpt lat="43.47147" lon="6.32472">
        <ele>172.5</ele>
        <time>2022-09-23T14:26:26Z</time>
      </trkpt>
      <trkpt lat="43.47156" lon="6.32477">
        <ele>173.5</ele>
        <time>2022-09-23T14:26:41Z</time>
      </trkpt>
      <trkpt lat="43.47165" lon="6.32479">
        <ele>174</ele>
        <time>2022-09-23T14:26:52Z</time>
      </trkpt>
      <trkpt lat="43.47174" lon="6.32471">
        <ele>174.5</ele>
        <time>2022-09-23T14:27:02Z</time>
      </trkpt>
      <trkpt lat="43.47182" lon="6.32462">
        <ele>174.4</ele>
        <time>2022-09-23T14:27:11Z</time>
      </trkpt>
      <trkpt lat="43.47189" lon="6.32453">
        <ele>174.8</ele>
        <time>2022-09-23T14:27:20Z</time>
      </trkpt>
      <trkpt lat="43.47195" lon="6.32443">
        <ele>174.6</ele>
        <time>2022-09-23T14:27:29Z</time>
      </trkpt>
      <trkpt lat="43.47199" lon="6.32432">
        <ele>174.4</ele>
        <time>2022-09-23T14:27:39Z</time>
      </trkpt>
      <trkpt lat="43.47201" lon="6.32419">
        <ele>173.8</ele>
        <time>2022-09-23T14:27:49Z</time>
      </trkpt>
      <trkpt lat="43.472" lon="6.32405">
        <ele>173.6</ele>
        <time>2022-09-23T14:27:59Z</time>
      </trkpt>
      <trkpt lat="43.47199" lon="6.32392">
        <ele>173.4</ele>
        <time>2022-09-23T14:28:11Z</time>
      </trkpt>
      <trkpt lat="43.47202" lon="6.3238">
        <ele>173.5</ele>
        <time>2022-09-23T14:28:21Z</time>
      </trkpt>
      <trkpt lat="43.47208" lon="6.3237">
        <ele>174.2</ele>
        <time>2022-09-23T14:28:33Z</time>
      </trkpt>
      <trkpt lat="43.47216" lon="6.32365">
        <ele>175.2</ele>
        <time>2022-09-23T14:28:52Z</time>
      </trkpt>
      <trkpt lat="43.47224" lon="6.32357">
        <ele>175.1</ele>
        <time>2022-09-23T14:29:00Z</time>
      </trkpt>
      <trkpt lat="43.47228" lon="6.32346">
        <ele>175.7</ele>
        <time>2022-09-23T14:29:15Z</time>
      </trkpt>
      <trkpt lat="43.47226" lon="6.32333">
        <ele>176.4</ele>
        <time>2022-09-23T14:31:07Z</time>
      </trkpt>
      <trkpt lat="43.47235" lon="6.3233">
        <ele>175.9</ele>
        <time>2022-09-23T14:35:37Z</time>
      </trkpt>
      <trkpt lat="43.47244" lon="6.32329">
        <ele>175</ele>
        <time>2022-09-23T14:35:48Z</time>
      </trkpt>
      <trkpt lat="43.47253" lon="6.32322">
        <ele>174.5</ele>
        <time>2022-09-23T14:35:56Z</time>
      </trkpt>
      <trkpt lat="43.47262" lon="6.3232">
        <ele>174.3</ele>
        <time>2022-09-23T14:36:08Z</time>
      </trkpt>
      <trkpt lat="43.47271" lon="6.32316">
        <ele>173.3</ele>
        <time>2022-09-23T14:36:18Z</time>
      </trkpt>
      <trkpt lat="43.4728" lon="6.32311">
        <ele>172.2</ele>
        <time>2022-09-23T14:36:28Z</time>
      </trkpt>
      <trkpt lat="43.47289" lon="6.32306">
        <ele>171.2</ele>
        <time>2022-09-23T14:36:38Z</time>
      </trkpt>
      <trkpt lat="43.47299" lon="6.32305">
        <ele>170.7</ele>
        <time>2022-09-23T14:36:49Z</time>
      </trkpt>
      <trkpt lat="43.47309" lon="6.32305">
        <ele>170.5</ele>
        <time>2022-09-23T14:36:57Z</time>
      </trkpt>
      <trkpt lat="43.47319" lon="6.32303">
        <ele>170.2</ele>
        <time>2022-09-23T14:37:04Z</time>
      </trkpt>
      <trkpt lat="43.47328" lon="6.32305">
        <ele>170.1</ele>
        <time>2022-09-23T14:37:14Z</time>
      </trkpt>
      <trkpt lat="43.47338" lon="6.32304">
        <ele>170.4</ele>
        <time>2022-09-23T14:37:23Z</time>
      </trkpt>
      <trkpt lat="43.47347" lon="6.32306">
        <ele>170.5</ele>
        <time>2022-09-23T14:37:35Z</time>
      </trkpt>
      <trkpt lat="43.47356" lon="6.32308">
        <ele>170.6</ele>
        <time>2022-09-23T14:37:43Z</time>
      </trkpt>
      <trkpt lat="43.47366" lon="6.32307">
        <ele>170.5</ele>
        <time>2022-09-23T14:37:51Z</time>
      </trkpt>
      <trkpt lat="43.47375" lon="6.32311">
        <ele>170.7</ele>
        <time>2022-09-23T14:38:00Z</time>
      </trkpt>
      <trkpt lat="43.47384" lon="6.32316">
        <ele>171.1</ele>
        <time>2022-09-23T14:38:08Z</time>
      </trkpt>
      <trkpt lat="43.47394" lon="6.32316">
        <ele>171.6</ele>
        <time>2022-09-23T14:38:16Z</time>
      </trkpt>
      <trkpt lat="43.47403" lon="6.32315">
        <ele>172.2</ele>
        <time>2022-09-23T14:38:23Z</time>
      </trkpt>
      <trkpt lat="43.47413" lon="6.32318">
        <ele>172.8</ele>
        <time>2022-09-23T14:38:32Z</time>
      </trkpt>
      <trkpt lat="43.47423" lon="6.32321">
        <ele>173.3</ele>
        <time>2022-09-23T14:38:40Z</time>
      </trkpt>
      <trkpt lat="43.47432" lon="6.32324">
        <ele>173.1</ele>
        <time>2022-09-23T14:38:47Z</time>
      </trkpt>
      <trkpt lat="43.47441" lon="6.32328">
        <ele>173.2</ele>
        <time>2022-09-23T14:38:54Z</time>
      </trkpt>
      <trkpt lat="43.47451" lon="6.32327">
        <ele>173.7</ele>
        <time>2022-09-23T14:39:03Z</time>
      </trkpt>
      <trkpt lat="43.47461" lon="6.32327">
        <ele>173.8</ele>
        <time>2022-09-23T14:39:10Z</time>
      </trkpt>
      <trkpt lat="43.4747" lon="6.32329">
        <ele>174.1</ele>
        <time>2022-09-23T14:39:17Z</time>
      </trkpt>
      <trkpt lat="43.4748" lon="6.32333">
        <ele>174.1</ele>
        <time>2022-09-23T14:39:25Z</time>
      </trkpt>
      <trkpt lat="43.47488" lon="6.32339">
        <ele>173.8</ele>
        <time>2022-09-23T14:39:33Z</time>
      </trkpt>
      <trkpt lat="43.47498" lon="6.32341">
        <ele>173.7</ele>
        <time>2022-09-23T14:39:43Z</time>
      </trkpt>
      <trkpt lat="43.47507" lon="6.32339">
        <ele>173.3</ele>
        <time>2022-09-23T14:39:51Z</time>
      </trkpt>
      <trkpt lat="43.47516" lon="6.32337">
        <ele>173</ele>
        <time>2022-09-23T14:39:57Z</time>
      </trkpt>
      <trkpt lat="43.47525" lon="6.32333">
        <ele>172.7</ele>
        <time>2022-09-23T14:40:04Z</time>
      </trkpt>
      <trkpt lat="43.47534" lon="6.32326">
        <ele>172.5</ele>
        <time>2022-09-23T14:40:11Z</time>
      </trkpt>
      <trkpt lat="43.4754" lon="6.32316">
        <ele>172.5</ele>
        <time>2022-09-23T14:40:18Z</time>
      </trkpt>
      <trkpt lat="43.47538" lon="6.32304">
        <ele>172.1</ele>
        <time>2022-09-23T14:40:27Z</time>
      </trkpt>
      <trkpt lat="43.47535" lon="6.32292">
        <ele>171.8</ele>
        <time>2022-09-23T14:40:37Z</time>
      </trkpt>
      <trkpt lat="43.4753" lon="6.3228">
        <ele>171.7</ele>
        <time>2022-09-23T14:40:47Z</time>
      </trkpt>
      <trkpt lat="43.4753" lon="6.32267">
        <ele>171.7</ele>
        <time>2022-09-23T14:40:56Z</time>
      </trkpt>
      <trkpt lat="43.47535" lon="6.32255">
        <ele>171.7</ele>
        <time>2022-09-23T14:41:05Z</time>
      </trkpt>
      <trkpt lat="43.47542" lon="6.32246">
        <ele>170.9</ele>
        <time>2022-09-23T14:41:15Z</time>
      </trkpt>
      <trkpt lat="43.47549" lon="6.32238">
        <ele>170.1</ele>
        <time>2022-09-23T14:41:24Z</time>
      </trkpt>
      <trkpt lat="43.47556" lon="6.32229">
        <ele>168.9</ele>
        <time>2022-09-23T14:41:32Z</time>
      </trkpt>
      <trkpt lat="43.47564" lon="6.32222">
        <ele>168</ele>
        <time>2022-09-23T14:41:42Z</time>
      </trkpt>
      <trkpt lat="43.4757" lon="6.32212">
        <ele>166.4</ele>
        <time>2022-09-23T14:41:52Z</time>
      </trkpt>
      <trkpt lat="43.47575" lon="6.32201">
        <ele>166.2</ele>
        <time>2022-09-23T14:42:00Z</time>
      </trkpt>
      <trkpt lat="43.47577" lon="6.32187">
        <ele>166</ele>
        <time>2022-09-23T14:42:09Z</time>
      </trkpt>
      <trkpt lat="43.47583" lon="6.32177">
        <ele>165.7</ele>
        <time>2022-09-23T14:42:17Z</time>
      </trkpt>
      <trkpt lat="43.4759" lon="6.32168">
        <ele>165.4</ele>
        <time>2022-09-23T14:42:24Z</time>
      </trkpt>
      <trkpt lat="43.47594" lon="6.32157">
        <ele>164.8</ele>
        <time>2022-09-23T14:42:32Z</time>
      </trkpt>
      <trkpt lat="43.47598" lon="6.32143">
        <ele>164.3</ele>
        <time>2022-09-23T14:42:41Z</time>
      </trkpt>
      <trkpt lat="43.47599" lon="6.32131">
        <ele>162.9</ele>
        <time>2022-09-23T14:42:51Z</time>
      </trkpt>
      <trkpt lat="43.47606" lon="6.32122">
        <ele>162</ele>
        <time>2022-09-23T14:42:59Z</time>
      </trkpt>
      <trkpt lat="43.47603" lon="6.3211">
        <ele>161.7</ele>
        <time>2022-09-23T14:43:19Z</time>
      </trkpt>
      <trkpt lat="43.47596" lon="6.32103">
        <ele>161.8</ele>
        <time>2022-09-23T14:44:04Z</time>
      </trkpt>
      <trkpt lat="43.47605" lon="6.32106">
        <ele>161</ele>
        <time>2022-09-23T14:50:03Z</time>
      </trkpt>
      <trkpt lat="43.47614" lon="6.32105">
        <ele>160.5</ele>
        <time>2022-09-23T14:50:16Z</time>
      </trkpt>
      <trkpt lat="43.47621" lon="6.32113">
        <ele>159.6</ele>
        <time>2022-09-23T14:50:29Z</time>
      </trkpt>
      <trkpt lat="43.47626" lon="6.32123">
        <ele>159</ele>
        <time>2022-09-23T14:50:41Z</time>
      </trkpt>
      <trkpt lat="43.47632" lon="6.32133">
        <ele>158.3</ele>
        <time>2022-09-23T14:50:53Z</time>
      </trkpt>
      <trkpt lat="43.47638" lon="6.32144">
        <ele>157.3</ele>
        <time>2022-09-23T14:51:08Z</time>
      </trkpt>
      <trkpt lat="43.47645" lon="6.32152">
        <ele>156.7</ele>
        <time>2022-09-23T14:51:20Z</time>
      </trkpt>
      <trkpt lat="43.47651" lon="6.32163">
        <ele>156.2</ele>
        <time>2022-09-23T14:51:34Z</time>
      </trkpt>
      <trkpt lat="43.47656" lon="6.32174">
        <ele>155.6</ele>
        <time>2022-09-23T14:51:45Z</time>
      </trkpt>
      <trkpt lat="43.47661" lon="6.32185">
        <ele>154.6</ele>
        <time>2022-09-23T14:51:57Z</time>
      </trkpt>
      <trkpt lat="43.47666" lon="6.32195">
        <ele>154.4</ele>
        <time>2022-09-23T14:52:07Z</time>
      </trkpt>
      <trkpt lat="43.47671" lon="6.32207">
        <ele>153.5</ele>
        <time>2022-09-23T14:52:21Z</time>
      </trkpt>
      <trkpt lat="43.47678" lon="6.32216">
        <ele>152.6</ele>
        <time>2022-09-23T14:52:32Z</time>
      </trkpt>
      <trkpt lat="43.47684" lon="6.32226">
        <ele>151.8</ele>
        <time>2022-09-23T14:52:43Z</time>
      </trkpt>
      <trkpt lat="43.4769" lon="6.32237">
        <ele>151.3</ele>
        <time>2022-09-23T14:52:54Z</time>
      </trkpt>
      <trkpt lat="43.47695" lon="6.32247">
        <ele>150.3</ele>
        <time>2022-09-23T14:53:06Z</time>
      </trkpt>
      <trkpt lat="43.477" lon="6.32258">
        <ele>149.2</ele>
        <time>2022-09-23T14:53:19Z</time>
      </trkpt>
      <trkpt lat="43.47702" lon="6.32271">
        <ele>148.4</ele>
        <time>2022-09-23T14:53:32Z</time>
      </trkpt>
      <trkpt lat="43.47702" lon="6.32284">
        <ele>147.7</ele>
        <time>2022-09-23T14:53:43Z</time>
      </trkpt>
      <trkpt lat="43.47708" lon="6.32295">
        <ele>147.5</ele>
        <time>2022-09-23T14:53:53Z</time>
      </trkpt>
      <trkpt lat="43.47711" lon="6.32307">
        <ele>147</ele>
        <time>2022-09-23T14:54:03Z</time>
      </trkpt>
      <trkpt lat="43.47713" lon="6.3232">
        <ele>145.7</ele>
        <time>2022-09-23T14:54:15Z</time>
      </trkpt>
      <trkpt lat="43.47718" lon="6.32331">
        <ele>144.9</ele>
        <time>2022-09-23T14:54:25Z</time>
      </trkpt>
      <trkpt lat="43.47721" lon="6.32342">
        <ele>144.3</ele>
        <time>2022-09-23T14:54:36Z</time>
      </trkpt>
      <trkpt lat="43.47727" lon="6.32352">
        <ele>143.9</ele>
        <time>2022-09-23T14:54:47Z</time>
      </trkpt>
      <trkpt lat="43.47732" lon="6.32364">
        <ele>143.1</ele>
        <time>2022-09-23T14:54:57Z</time>
      </trkpt>
      <trkpt lat="43.4774" lon="6.32371">
        <ele>142.2</ele>
        <time>2022-09-23T14:55:15Z</time>
      </trkpt>
      <trkpt lat="43.47748" lon="6.32377">
        <ele>140.3</ele>
        <time>2022-09-23T14:55:35Z</time>
      </trkpt>
      <trkpt lat="43.47757" lon="6.32379">
        <ele>138.8</ele>
        <time>2022-09-23T14:56:57Z</time>
      </trkpt>
      <trkpt lat="43.4775" lon="6.3237">
        <ele>140.7</ele>
        <time>2022-09-23T14:57:16Z</time>
      </trkpt>
      <trkpt lat="43.4775" lon="6.32382">
        <ele>141.8</ele>
        <time>2022-09-23T14:57:29Z</time>
      </trkpt>
      <trkpt lat="43.47753" lon="6.32394">
        <ele>141.7</ele>
        <time>2022-09-23T14:57:37Z</time>
      </trkpt>
      <trkpt lat="43.47755" lon="6.32407">
        <ele>141.4</ele>
        <time>2022-09-23T14:57:45Z</time>
      </trkpt>
      <trkpt lat="43.47758" lon="6.3242">
        <ele>141.3</ele>
        <time>2022-09-23T14:57:52Z</time>
      </trkpt>
      <trkpt lat="43.47763" lon="6.32431">
        <ele>141.4</ele>
        <time>2022-09-23T14:58:00Z</time>
      </trkpt>
      <trkpt lat="43.47765" lon="6.32444">
        <ele>141.6</ele>
        <time>2022-09-23T14:58:08Z</time>
      </trkpt>
      <trkpt lat="43.47768" lon="6.32457">
        <ele>141.8</ele>
        <time>2022-09-23T14:58:16Z</time>
      </trkpt>
      <trkpt lat="43.47772" lon="6.32469">
        <ele>141.9</ele>
        <time>2022-09-23T14:58:25Z</time>
      </trkpt>
      <trkpt lat="43.47777" lon="6.3248">
        <ele>141.8</ele>
        <time>2022-09-23T14:58:53Z</time>
      </trkpt>
      <trkpt lat="43.47778" lon="6.32493">
        <ele>142.9</ele>
        <time>2022-09-23T14:59:05Z</time>
      </trkpt>
      <trkpt lat="43.47778" lon="6.32507">
        <ele>143.4</ele>
        <time>2022-09-23T14:59:16Z</time>
      </trkpt>
      <trkpt lat="43.47779" lon="6.32519">
        <ele>144.5</ele>
        <time>2022-09-23T14:59:26Z</time>
      </trkpt>
      <trkpt lat="43.47779" lon="6.32533">
        <ele>145.7</ele>
        <time>2022-09-23T14:59:36Z</time>
      </trkpt>
      <trkpt lat="43.47779" lon="6.32545">
        <ele>146.4</ele>
        <time>2022-09-23T14:59:46Z</time>
      </trkpt>
      <trkpt lat="43.47781" lon="6.32558">
        <ele>147</ele>
        <time>2022-09-23T14:59:57Z</time>
      </trkpt>
      <trkpt lat="43.47782" lon="6.32571">
        <ele>147.9</ele>
        <time>2022-09-23T15:00:08Z</time>
      </trkpt>
      <trkpt lat="43.47788" lon="6.3258">
        <ele>149.2</ele>
        <time>2022-09-23T15:00:20Z</time>
      </trkpt>
      <trkpt lat="43.47793" lon="6.32591">
        <ele>150.3</ele>
        <time>2022-09-23T15:00:37Z</time>
      </trkpt>
      <trkpt lat="43.47798" lon="6.32602">
        <ele>151.3</ele>
        <time>2022-09-23T15:00:53Z</time>
      </trkpt>
      <trkpt lat="43.47802" lon="6.32613">
        <ele>151.7</ele>
        <time>2022-09-23T15:01:09Z</time>
      </trkpt>
      <trkpt lat="43.47805" lon="6.32625">
        <ele>152.3</ele>
        <time>2022-09-23T15:01:28Z</time>
      </trkpt>
      <trkpt lat="43.4781" lon="6.32637">
        <ele>153.1</ele>
        <time>2022-09-23T15:01:44Z</time>
      </trkpt>
      <trkpt lat="43.47815" lon="6.32648">
        <ele>154.4</ele>
        <time>2022-09-23T15:01:55Z</time>
      </trkpt>
      <trkpt lat="43.47821" lon="6.32658">
        <ele>155.5</ele>
        <time>2022-09-23T15:02:05Z</time>
      </trkpt>
      <trkpt lat="43.47826" lon="6.32668">
        <ele>156.6</ele>
        <time>2022-09-23T15:02:16Z</time>
      </trkpt>
      <trkpt lat="43.47831" lon="6.3268">
        <ele>157.2</ele>
        <time>2022-09-23T15:02:25Z</time>
      </trkpt>
      <trkpt lat="43.47837" lon="6.32689">
        <ele>157.4</ele>
        <time>2022-09-23T15:02:33Z</time>
      </trkpt>
      <trkpt lat="43.47845" lon="6.32698">
        <ele>157.6</ele>
        <time>2022-09-23T15:02:42Z</time>
      </trkpt>
      <trkpt lat="43.47852" lon="6.32706">
        <ele>157.2</ele>
        <time>2022-09-23T15:02:50Z</time>
      </trkpt>
      <trkpt lat="43.4786" lon="6.32714">
        <ele>156.9</ele>
        <time>2022-09-23T15:02:59Z</time>
      </trkpt>
      <trkpt lat="43.47868" lon="6.32721">
        <ele>156.1</ele>
        <time>2022-09-23T15:03:07Z</time>
      </trkpt>
      <trkpt lat="43.47876" lon="6.32729">
        <ele>155.8</ele>
        <time>2022-09-23T15:03:15Z</time>
      </trkpt>
      <trkpt lat="43.47884" lon="6.32735">
        <ele>155.8</ele>
        <time>2022-09-23T15:03:23Z</time>
      </trkpt>
      <trkpt lat="43.47892" lon="6.32741">
        <ele>155.8</ele>
        <time>2022-09-23T15:03:31Z</time>
      </trkpt>
      <trkpt lat="43.47901" lon="6.32748">
        <ele>156.1</ele>
        <time>2022-09-23T15:03:41Z</time>
      </trkpt>
      <trkpt lat="43.47911" lon="6.32751">
        <ele>156.6</ele>
        <time>2022-09-23T15:03:52Z</time>
      </trkpt>
      <trkpt lat="43.4792" lon="6.32751">
        <ele>156.7</ele>
        <time>2022-09-23T15:04:00Z</time>
      </trkpt>
      <trkpt lat="43.47929" lon="6.32751">
        <ele>156.4</ele>
        <time>2022-09-23T15:04:08Z</time>
      </trkpt>
      <trkpt lat="43.47939" lon="6.32751">
        <ele>155.9</ele>
        <time>2022-09-23T15:04:17Z</time>
      </trkpt>
      <trkpt lat="43.47949" lon="6.32749">
        <ele>155.1</ele>
        <time>2022-09-23T15:04:26Z</time>
      </trkpt>
      <trkpt lat="43.47958" lon="6.32748">
        <ele>154.9</ele>
        <time>2022-09-23T15:04:36Z</time>
      </trkpt>
      <trkpt lat="43.47967" lon="6.32745">
        <ele>154.9</ele>
        <time>2022-09-23T15:04:45Z</time>
      </trkpt>
      <trkpt lat="43.47976" lon="6.32745">
        <ele>154.8</ele>
        <time>2022-09-23T15:04:54Z</time>
      </trkpt>
      <trkpt lat="43.47985" lon="6.32747">
        <ele>154.7</ele>
        <time>2022-09-23T15:05:03Z</time>
      </trkpt>
      <trkpt lat="43.47994" lon="6.32745">
        <ele>155.1</ele>
        <time>2022-09-23T15:05:12Z</time>
      </trkpt>
      <trkpt lat="43.48007" lon="6.32742">
        <ele>155.1</ele>
        <time>2022-09-23T15:05:19Z</time>
      </trkpt>
      <trkpt lat="43.48016" lon="6.3274">
        <ele>155.2</ele>
        <time>2022-09-23T15:05:26Z</time>
      </trkpt>
      <trkpt lat="43.48026" lon="6.3274">
        <ele>155.2</ele>
        <time>2022-09-23T15:05:36Z</time>
      </trkpt>
      <trkpt lat="43.48035" lon="6.32742">
        <ele>155.6</ele>
        <time>2022-09-23T15:05:45Z</time>
      </trkpt>
      <trkpt lat="43.48045" lon="6.32744">
        <ele>156.3</ele>
        <time>2022-09-23T15:05:55Z</time>
      </trkpt>
      <trkpt lat="43.48054" lon="6.32749">
        <ele>157</ele>
        <time>2022-09-23T15:06:04Z</time>
      </trkpt>
      <trkpt lat="43.48061" lon="6.32756">
        <ele>157.7</ele>
        <time>2022-09-23T15:06:12Z</time>
      </trkpt>
      <trkpt lat="43.48069" lon="6.32762">
        <ele>158.8</ele>
        <time>2022-09-23T15:06:22Z</time>
      </trkpt>
      <trkpt lat="43.48078" lon="6.32768">
        <ele>159.9</ele>
        <time>2022-09-23T15:06:31Z</time>
      </trkpt>
      <trkpt lat="43.48087" lon="6.32775">
        <ele>160.8</ele>
        <time>2022-09-23T15:06:41Z</time>
      </trkpt>
      <trkpt lat="43.48094" lon="6.32782">
        <ele>162.1</ele>
        <time>2022-09-23T15:06:55Z</time>
      </trkpt>
      <trkpt lat="43.481" lon="6.32793">
        <ele>162.7</ele>
        <time>2022-09-23T15:07:07Z</time>
      </trkpt>
      <trkpt lat="43.48106" lon="6.32802">
        <ele>163.1</ele>
        <time>2022-09-23T15:07:14Z</time>
      </trkpt>
      <trkpt lat="43.48112" lon="6.32812">
        <ele>163.6</ele>
        <time>2022-09-23T15:07:25Z</time>
      </trkpt>
      <trkpt lat="43.48118" lon="6.32821">
        <ele>163.9</ele>
        <time>2022-09-23T15:07:59Z</time>
      </trkpt>
      <trkpt lat="43.4812" lon="6.32819">
        <ele>164</ele>
        <time>2022-09-23T15:08:21Z</time>
      </trkpt>
    </trkseg>
  </trk>
</gpx>